﻿<?xml version="1.0" encoding="UTF-8" standalone="no"?>
<gpx xmlns="http://www.topografix.com/GPX/1/1" xmlns:gpxtpx="http://www.garmin.com/xmlschemas/TrackPointExtension/v1" xmlns:xsi="http://www.w3.org/2001/XMLSchema-instance" creator="Hribi.net" version="1.1" xsi:schemaLocation="http://www.topografix.com/GPX/1/1 http://www.topografix.com/GPX/1/1/gpx.xsd http://www.garmin.com/xmlschemas/TrackPointExtension/v1 http://www.garmin.com/xmlschemas/TrackPointExtensionv1.xsd">
  <metadata>
    <name>GPS sled</name>
    <desc>www.hribi.net</desc>
    <author>
      <name>hribi.net</name>
    </author>
    <link href="http://www.hribi.net">
      <text>Hribi.net</text>
    </link>
  </metadata>
  <trk>
    <trkseg>
      <trkpt lat="45.972636" lon="13.649087">
        <ele>105.60</ele>
        <time>2024-06-27T05:57:08Z</time>
      </trkpt>
      <trkpt lat="45.972621" lon="13.649073">
        <ele>105.40</ele>
        <time>2024-06-27T05:57:11Z</time>
      </trkpt>
      <trkpt lat="45.972639" lon="13.649066">
        <ele>105.40</ele>
        <time>2024-06-27T05:57:17Z</time>
      </trkpt>
      <trkpt lat="45.972640" lon="13.649064">
        <ele>105.40</ele>
        <time>2024-06-27T05:57:18Z</time>
      </trkpt>
      <trkpt lat="45.972658" lon="13.649096">
        <ele>105.60</ele>
        <time>2024-06-27T05:57:54Z</time>
      </trkpt>
      <trkpt lat="45.972660" lon="13.649139">
        <ele>105.60</ele>
        <time>2024-06-27T05:57:56Z</time>
      </trkpt>
      <trkpt lat="45.972658" lon="13.649191">
        <ele>105.80</ele>
        <time>2024-06-27T05:57:58Z</time>
      </trkpt>
      <trkpt lat="45.972636" lon="13.649239">
        <ele>106.00</ele>
        <time>2024-06-27T05:58:01Z</time>
      </trkpt>
      <trkpt lat="45.972624" lon="13.649258">
        <ele>106.00</ele>
        <time>2024-06-27T05:58:02Z</time>
      </trkpt>
      <trkpt lat="45.972541" lon="13.649391">
        <ele>105.60</ele>
        <time>2024-06-27T05:58:10Z</time>
      </trkpt>
      <trkpt lat="45.972512" lon="13.649410">
        <ele>106.00</ele>
        <time>2024-06-27T05:58:12Z</time>
      </trkpt>
      <trkpt lat="45.972502" lon="13.649420">
        <ele>106.20</ele>
        <time>2024-06-27T05:58:13Z</time>
      </trkpt>
      <trkpt lat="45.972440" lon="13.649474">
        <ele>107.20</ele>
        <time>2024-06-27T05:58:19Z</time>
      </trkpt>
      <trkpt lat="45.972407" lon="13.649550">
        <ele>107.80</ele>
        <time>2024-06-27T05:58:24Z</time>
      </trkpt>
      <trkpt lat="45.972422" lon="13.649496">
        <ele>107.60</ele>
        <time>2024-06-27T05:58:35Z</time>
      </trkpt>
      <trkpt lat="45.972429" lon="13.649484">
        <ele>107.40</ele>
        <time>2024-06-27T05:58:36Z</time>
      </trkpt>
      <trkpt lat="45.972440" lon="13.649471">
        <ele>107.20</ele>
        <time>2024-06-27T05:58:37Z</time>
      </trkpt>
      <trkpt lat="45.972415" lon="13.649511">
        <ele>107.60</ele>
        <time>2024-06-27T05:59:16Z</time>
      </trkpt>
      <trkpt lat="45.972393" lon="13.649656">
        <ele>108.40</ele>
        <time>2024-06-27T05:59:24Z</time>
      </trkpt>
      <trkpt lat="45.972392" lon="13.649669">
        <ele>108.40</ele>
        <time>2024-06-27T05:59:25Z</time>
      </trkpt>
      <trkpt lat="45.972400" lon="13.649866">
        <ele>109.20</ele>
        <time>2024-06-27T05:59:35Z</time>
      </trkpt>
      <trkpt lat="45.972400" lon="13.649888">
        <ele>109.20</ele>
        <time>2024-06-27T05:59:36Z</time>
      </trkpt>
      <trkpt lat="45.972375" lon="13.650044">
        <ele>110.00</ele>
        <time>2024-06-27T05:59:44Z</time>
      </trkpt>
      <trkpt lat="45.972359" lon="13.650085">
        <ele>110.20</ele>
        <time>2024-06-27T05:59:46Z</time>
      </trkpt>
      <trkpt lat="45.972350" lon="13.650102">
        <ele>110.20</ele>
        <time>2024-06-27T05:59:47Z</time>
      </trkpt>
      <trkpt lat="45.972304" lon="13.650239">
        <ele>110.80</ele>
        <time>2024-06-27T05:59:55Z</time>
      </trkpt>
      <trkpt lat="45.972265" lon="13.650301">
        <ele>111.60</ele>
        <time>2024-06-27T05:59:58Z</time>
      </trkpt>
      <trkpt lat="45.972258" lon="13.650322">
        <ele>111.60</ele>
        <time>2024-06-27T05:59:59Z</time>
      </trkpt>
      <trkpt lat="45.972234" lon="13.650422">
        <ele>112.20</ele>
        <time>2024-06-27T06:00:04Z</time>
      </trkpt>
      <trkpt lat="45.972226" lon="13.650515">
        <ele>113.20</ele>
        <time>2024-06-27T06:00:08Z</time>
      </trkpt>
      <trkpt lat="45.972219" lon="13.650536">
        <ele>113.60</ele>
        <time>2024-06-27T06:00:09Z</time>
      </trkpt>
      <trkpt lat="45.972200" lon="13.650641">
        <ele>115.00</ele>
        <time>2024-06-27T06:00:14Z</time>
      </trkpt>
      <trkpt lat="45.972213" lon="13.650747">
        <ele>115.80</ele>
        <time>2024-06-27T06:00:19Z</time>
      </trkpt>
      <trkpt lat="45.972218" lon="13.650775">
        <ele>116.00</ele>
        <time>2024-06-27T06:00:20Z</time>
      </trkpt>
      <trkpt lat="45.972252" lon="13.650996">
        <ele>120.00</ele>
        <time>2024-06-27T06:00:30Z</time>
      </trkpt>
      <trkpt lat="45.972256" lon="13.651019">
        <ele>120.40</ele>
        <time>2024-06-27T06:00:31Z</time>
      </trkpt>
      <trkpt lat="45.972265" lon="13.651078">
        <ele>121.60</ele>
        <time>2024-06-27T06:00:34Z</time>
      </trkpt>
      <trkpt lat="45.972263" lon="13.651183">
        <ele>123.20</ele>
        <time>2024-06-27T06:00:39Z</time>
      </trkpt>
      <trkpt lat="45.972291" lon="13.651174">
        <ele>122.40</ele>
        <time>2024-06-27T06:00:51Z</time>
      </trkpt>
      <trkpt lat="45.972293" lon="13.651173">
        <ele>122.40</ele>
        <time>2024-06-27T06:00:52Z</time>
      </trkpt>
      <trkpt lat="45.972331" lon="13.651215">
        <ele>122.60</ele>
        <time>2024-06-27T06:01:24Z</time>
      </trkpt>
      <trkpt lat="45.972367" lon="13.651204">
        <ele>122.20</ele>
        <time>2024-06-27T06:01:28Z</time>
      </trkpt>
      <trkpt lat="45.972429" lon="13.651164">
        <ele>122.40</ele>
        <time>2024-06-27T06:01:33Z</time>
      </trkpt>
      <trkpt lat="45.972439" lon="13.651155">
        <ele>122.20</ele>
        <time>2024-06-27T06:01:34Z</time>
      </trkpt>
      <trkpt lat="45.972486" lon="13.651089">
        <ele>121.20</ele>
        <time>2024-06-27T06:01:39Z</time>
      </trkpt>
      <trkpt lat="45.972563" lon="13.651008">
        <ele>120.40</ele>
        <time>2024-06-27T06:01:48Z</time>
      </trkpt>
      <trkpt lat="45.972573" lon="13.651001">
        <ele>120.40</ele>
        <time>2024-06-27T06:01:49Z</time>
      </trkpt>
      <trkpt lat="45.972652" lon="13.650943">
        <ele>120.40</ele>
        <time>2024-06-27T06:01:55Z</time>
      </trkpt>
      <trkpt lat="45.972717" lon="13.650951">
        <ele>122.40</ele>
        <time>2024-06-27T06:02:00Z</time>
      </trkpt>
      <trkpt lat="45.972731" lon="13.650950">
        <ele>122.60</ele>
        <time>2024-06-27T06:02:01Z</time>
      </trkpt>
      <trkpt lat="45.972836" lon="13.650966">
        <ele>125.40</ele>
        <time>2024-06-27T06:02:09Z</time>
      </trkpt>
      <trkpt lat="45.972923" lon="13.650961">
        <ele>127.20</ele>
        <time>2024-06-27T06:02:16Z</time>
      </trkpt>
      <trkpt lat="45.972941" lon="13.650961">
        <ele>127.60</ele>
        <time>2024-06-27T06:02:17Z</time>
      </trkpt>
      <trkpt lat="45.973040" lon="13.650975">
        <ele>130.60</ele>
        <time>2024-06-27T06:02:25Z</time>
      </trkpt>
      <trkpt lat="45.973088" lon="13.650961">
        <ele>131.00</ele>
        <time>2024-06-27T06:02:29Z</time>
      </trkpt>
      <trkpt lat="45.973105" lon="13.650955">
        <ele>131.00</ele>
        <time>2024-06-27T06:02:30Z</time>
      </trkpt>
      <trkpt lat="45.973198" lon="13.650933">
        <ele>131.60</ele>
        <time>2024-06-27T06:02:38Z</time>
      </trkpt>
      <trkpt lat="45.973269" lon="13.650958">
        <ele>133.80</ele>
        <time>2024-06-27T06:02:44Z</time>
      </trkpt>
      <trkpt lat="45.973274" lon="13.650964">
        <ele>134.00</ele>
        <time>2024-06-27T06:02:45Z</time>
      </trkpt>
      <trkpt lat="45.973383" lon="13.651038">
        <ele>138.60</ele>
        <time>2024-06-27T06:02:55Z</time>
      </trkpt>
      <trkpt lat="45.973439" lon="13.651046">
        <ele>139.40</ele>
        <time>2024-06-27T06:03:00Z</time>
      </trkpt>
      <trkpt lat="45.973451" lon="13.651048">
        <ele>139.60</ele>
        <time>2024-06-27T06:03:01Z</time>
      </trkpt>
      <trkpt lat="45.973498" lon="13.651047">
        <ele>139.80</ele>
        <time>2024-06-27T06:03:05Z</time>
      </trkpt>
      <trkpt lat="45.973521" lon="13.651034">
        <ele>139.20</ele>
        <time>2024-06-27T06:03:07Z</time>
      </trkpt>
      <trkpt lat="45.973561" lon="13.651029">
        <ele>139.00</ele>
        <time>2024-06-27T06:03:11Z</time>
      </trkpt>
      <trkpt lat="45.973619" lon="13.651033">
        <ele>139.60</ele>
        <time>2024-06-27T06:03:16Z</time>
      </trkpt>
      <trkpt lat="45.973626" lon="13.651036">
        <ele>139.60</ele>
        <time>2024-06-27T06:03:17Z</time>
      </trkpt>
      <trkpt lat="45.973717" lon="13.651058">
        <ele>142.40</ele>
        <time>2024-06-27T06:03:27Z</time>
      </trkpt>
      <trkpt lat="45.973781" lon="13.651134">
        <ele>145.60</ele>
        <time>2024-06-27T06:03:34Z</time>
      </trkpt>
      <trkpt lat="45.973791" lon="13.651149">
        <ele>146.00</ele>
        <time>2024-06-27T06:03:35Z</time>
      </trkpt>
      <trkpt lat="45.973856" lon="13.651257">
        <ele>148.60</ele>
        <time>2024-06-27T06:03:45Z</time>
      </trkpt>
      <trkpt lat="45.973916" lon="13.651330">
        <ele>150.40</ele>
        <time>2024-06-27T06:03:53Z</time>
      </trkpt>
      <trkpt lat="45.973918" lon="13.651332">
        <ele>150.60</ele>
        <time>2024-06-27T06:03:54Z</time>
      </trkpt>
      <trkpt lat="45.973936" lon="13.651360">
        <ele>151.40</ele>
        <time>2024-06-27T06:04:24Z</time>
      </trkpt>
      <trkpt lat="45.973989" lon="13.651366">
        <ele>151.40</ele>
        <time>2024-06-27T06:04:29Z</time>
      </trkpt>
      <trkpt lat="45.974067" lon="13.651416">
        <ele>152.60</ele>
        <time>2024-06-27T06:04:37Z</time>
      </trkpt>
      <trkpt lat="45.974072" lon="13.651422">
        <ele>152.80</ele>
        <time>2024-06-27T06:04:38Z</time>
      </trkpt>
      <trkpt lat="45.974105" lon="13.651450">
        <ele>153.60</ele>
        <time>2024-06-27T06:04:42Z</time>
      </trkpt>
      <trkpt lat="45.974200" lon="13.651497">
        <ele>155.40</ele>
        <time>2024-06-27T06:04:52Z</time>
      </trkpt>
      <trkpt lat="45.974244" lon="13.651543">
        <ele>157.00</ele>
        <time>2024-06-27T06:04:57Z</time>
      </trkpt>
      <trkpt lat="45.974255" lon="13.651552">
        <ele>157.40</ele>
        <time>2024-06-27T06:04:58Z</time>
      </trkpt>
      <trkpt lat="45.974324" lon="13.651634">
        <ele>160.20</ele>
        <time>2024-06-27T06:05:07Z</time>
      </trkpt>
      <trkpt lat="45.974398" lon="13.651687">
        <ele>161.40</ele>
        <time>2024-06-27T06:05:15Z</time>
      </trkpt>
      <trkpt lat="45.974412" lon="13.651697">
        <ele>161.80</ele>
        <time>2024-06-27T06:05:16Z</time>
      </trkpt>
      <trkpt lat="45.974519" lon="13.651866">
        <ele>166.00</ele>
        <time>2024-06-27T06:05:29Z</time>
      </trkpt>
      <trkpt lat="45.974527" lon="13.651878">
        <ele>166.20</ele>
        <time>2024-06-27T06:05:30Z</time>
      </trkpt>
      <trkpt lat="45.974588" lon="13.651990">
        <ele>169.00</ele>
        <time>2024-06-27T06:05:40Z</time>
      </trkpt>
      <trkpt lat="45.974625" lon="13.652090">
        <ele>171.20</ele>
        <time>2024-06-27T06:05:47Z</time>
      </trkpt>
      <trkpt lat="45.974634" lon="13.652101">
        <ele>171.40</ele>
        <time>2024-06-27T06:05:48Z</time>
      </trkpt>
      <trkpt lat="45.974677" lon="13.652175">
        <ele>173.00</ele>
        <time>2024-06-27T06:05:55Z</time>
      </trkpt>
      <trkpt lat="45.974686" lon="13.652207">
        <ele>173.80</ele>
        <time>2024-06-27T06:05:58Z</time>
      </trkpt>
      <trkpt lat="45.974750" lon="13.652275">
        <ele>175.00</ele>
        <time>2024-06-27T06:06:07Z</time>
      </trkpt>
      <trkpt lat="45.974754" lon="13.652284">
        <ele>175.20</ele>
        <time>2024-06-27T06:06:08Z</time>
      </trkpt>
      <trkpt lat="45.974788" lon="13.652357">
        <ele>177.20</ele>
        <time>2024-06-27T06:06:15Z</time>
      </trkpt>
      <trkpt lat="45.974846" lon="13.652439">
        <ele>179.00</ele>
        <time>2024-06-27T06:06:22Z</time>
      </trkpt>
      <trkpt lat="45.974859" lon="13.652476">
        <ele>180.00</ele>
        <time>2024-06-27T06:06:25Z</time>
      </trkpt>
      <trkpt lat="45.974867" lon="13.652485">
        <ele>180.20</ele>
        <time>2024-06-27T06:06:26Z</time>
      </trkpt>
      <trkpt lat="45.974969" lon="13.652667">
        <ele>183.00</ele>
        <time>2024-06-27T06:06:44Z</time>
      </trkpt>
      <trkpt lat="45.974976" lon="13.652682">
        <ele>183.40</ele>
        <time>2024-06-27T06:06:45Z</time>
      </trkpt>
      <trkpt lat="45.975048" lon="13.652840">
        <ele>186.00</ele>
        <time>2024-06-27T06:06:58Z</time>
      </trkpt>
      <trkpt lat="45.975062" lon="13.652908">
        <ele>187.20</ele>
        <time>2024-06-27T06:07:04Z</time>
      </trkpt>
      <trkpt lat="45.975060" lon="13.652921">
        <ele>187.40</ele>
        <time>2024-06-27T06:07:05Z</time>
      </trkpt>
      <trkpt lat="45.975060" lon="13.653026">
        <ele>189.80</ele>
        <time>2024-06-27T06:07:28Z</time>
      </trkpt>
      <trkpt lat="45.975013" lon="13.653108">
        <ele>192.40</ele>
        <time>2024-06-27T06:07:33Z</time>
      </trkpt>
      <trkpt lat="45.975006" lon="13.653126">
        <ele>192.80</ele>
        <time>2024-06-27T06:07:34Z</time>
      </trkpt>
      <trkpt lat="45.975004" lon="13.653244">
        <ele>195.00</ele>
        <time>2024-06-27T06:07:41Z</time>
      </trkpt>
      <trkpt lat="45.974967" lon="13.653330">
        <ele>196.80</ele>
        <time>2024-06-27T06:07:46Z</time>
      </trkpt>
      <trkpt lat="45.974956" lon="13.653341">
        <ele>197.00</ele>
        <time>2024-06-27T06:07:47Z</time>
      </trkpt>
      <trkpt lat="45.974832" lon="13.653494">
        <ele>200.20</ele>
        <time>2024-06-27T06:08:01Z</time>
      </trkpt>
      <trkpt lat="45.974823" lon="13.653502">
        <ele>200.40</ele>
        <time>2024-06-27T06:08:02Z</time>
      </trkpt>
      <trkpt lat="45.974744" lon="13.653580">
        <ele>201.40</ele>
        <time>2024-06-27T06:08:11Z</time>
      </trkpt>
      <trkpt lat="45.974691" lon="13.653652">
        <ele>202.60</ele>
        <time>2024-06-27T06:08:18Z</time>
      </trkpt>
      <trkpt lat="45.974683" lon="13.653659">
        <ele>202.60</ele>
        <time>2024-06-27T06:08:19Z</time>
      </trkpt>
      <trkpt lat="45.974525" lon="13.653818">
        <ele>205.60</ele>
        <time>2024-06-27T06:08:35Z</time>
      </trkpt>
      <trkpt lat="45.974502" lon="13.653831">
        <ele>205.80</ele>
        <time>2024-06-27T06:08:36Z</time>
      </trkpt>
      <trkpt lat="45.974470" lon="13.653859">
        <ele>206.60</ele>
        <time>2024-06-27T06:08:39Z</time>
      </trkpt>
      <trkpt lat="45.974365" lon="13.654006">
        <ele>210.00</ele>
        <time>2024-06-27T06:08:52Z</time>
      </trkpt>
      <trkpt lat="45.974361" lon="13.654013">
        <ele>210.20</ele>
        <time>2024-06-27T06:08:53Z</time>
      </trkpt>
      <trkpt lat="45.974316" lon="13.654095">
        <ele>211.00</ele>
        <time>2024-06-27T06:09:00Z</time>
      </trkpt>
      <trkpt lat="45.974240" lon="13.654165">
        <ele>211.60</ele>
        <time>2024-06-27T06:09:07Z</time>
      </trkpt>
      <trkpt lat="45.974229" lon="13.654178">
        <ele>211.80</ele>
        <time>2024-06-27T06:09:08Z</time>
      </trkpt>
      <trkpt lat="45.974205" lon="13.654215">
        <ele>212.40</ele>
        <time>2024-06-27T06:09:11Z</time>
      </trkpt>
      <trkpt lat="45.974140" lon="13.654403">
        <ele>213.60</ele>
        <time>2024-06-27T06:09:23Z</time>
      </trkpt>
      <trkpt lat="45.974135" lon="13.654420">
        <ele>213.60</ele>
        <time>2024-06-27T06:09:24Z</time>
      </trkpt>
      <trkpt lat="45.974098" lon="13.654595">
        <ele>215.20</ele>
        <time>2024-06-27T06:09:34Z</time>
      </trkpt>
      <trkpt lat="45.974103" lon="13.654687">
        <ele>215.80</ele>
        <time>2024-06-27T06:09:39Z</time>
      </trkpt>
      <trkpt lat="45.974102" lon="13.654706">
        <ele>216.00</ele>
        <time>2024-06-27T06:09:40Z</time>
      </trkpt>
      <trkpt lat="45.974109" lon="13.654852">
        <ele>217.00</ele>
        <time>2024-06-27T06:09:49Z</time>
      </trkpt>
      <trkpt lat="45.974102" lon="13.654963">
        <ele>217.80</ele>
        <time>2024-06-27T06:09:55Z</time>
      </trkpt>
      <trkpt lat="45.974103" lon="13.654981">
        <ele>218.00</ele>
        <time>2024-06-27T06:09:56Z</time>
      </trkpt>
      <trkpt lat="45.974095" lon="13.655157">
        <ele>219.40</ele>
        <time>2024-06-27T06:10:06Z</time>
      </trkpt>
      <trkpt lat="45.974105" lon="13.655235">
        <ele>220.20</ele>
        <time>2024-06-27T06:10:11Z</time>
      </trkpt>
      <trkpt lat="45.974108" lon="13.655256">
        <ele>220.40</ele>
        <time>2024-06-27T06:10:12Z</time>
      </trkpt>
      <trkpt lat="45.974145" lon="13.655464">
        <ele>221.60</ele>
        <time>2024-06-27T06:10:22Z</time>
      </trkpt>
      <trkpt lat="45.974149" lon="13.655480">
        <ele>221.80</ele>
        <time>2024-06-27T06:10:23Z</time>
      </trkpt>
      <trkpt lat="45.974189" lon="13.655585">
        <ele>222.00</ele>
        <time>2024-06-27T06:10:29Z</time>
      </trkpt>
      <trkpt lat="45.974245" lon="13.655669">
        <ele>222.40</ele>
        <time>2024-06-27T06:10:36Z</time>
      </trkpt>
      <trkpt lat="45.974248" lon="13.655687">
        <ele>222.40</ele>
        <time>2024-06-27T06:10:37Z</time>
      </trkpt>
      <trkpt lat="45.974237" lon="13.655758">
        <ele>223.40</ele>
        <time>2024-06-27T06:10:55Z</time>
      </trkpt>
      <trkpt lat="45.974244" lon="13.655786">
        <ele>223.60</ele>
        <time>2024-06-27T06:10:57Z</time>
      </trkpt>
      <trkpt lat="45.974257" lon="13.655817">
        <ele>223.80</ele>
        <time>2024-06-27T06:10:59Z</time>
      </trkpt>
      <trkpt lat="45.974315" lon="13.655888">
        <ele>224.20</ele>
        <time>2024-06-27T06:11:05Z</time>
      </trkpt>
      <trkpt lat="45.974326" lon="13.655902">
        <ele>224.20</ele>
        <time>2024-06-27T06:11:06Z</time>
      </trkpt>
      <trkpt lat="45.974424" lon="13.656078">
        <ele>226.80</ele>
        <time>2024-06-27T06:11:17Z</time>
      </trkpt>
      <trkpt lat="45.974433" lon="13.656092">
        <ele>227.00</ele>
        <time>2024-06-27T06:11:18Z</time>
      </trkpt>
      <trkpt lat="45.974449" lon="13.656120">
        <ele>227.20</ele>
        <time>2024-06-27T06:11:20Z</time>
      </trkpt>
      <trkpt lat="45.974521" lon="13.656193">
        <ele>228.00</ele>
        <time>2024-06-27T06:11:27Z</time>
      </trkpt>
      <trkpt lat="45.974556" lon="13.656256">
        <ele>229.00</ele>
        <time>2024-06-27T06:11:32Z</time>
      </trkpt>
      <trkpt lat="45.974563" lon="13.656269">
        <ele>229.20</ele>
        <time>2024-06-27T06:11:33Z</time>
      </trkpt>
      <trkpt lat="45.974605" lon="13.656340">
        <ele>230.20</ele>
        <time>2024-06-27T06:11:38Z</time>
      </trkpt>
      <trkpt lat="45.974638" lon="13.656376">
        <ele>230.80</ele>
        <time>2024-06-27T06:11:42Z</time>
      </trkpt>
      <trkpt lat="45.974678" lon="13.656453">
        <ele>231.80</ele>
        <time>2024-06-27T06:11:47Z</time>
      </trkpt>
      <trkpt lat="45.974679" lon="13.656468">
        <ele>231.80</ele>
        <time>2024-06-27T06:11:48Z</time>
      </trkpt>
      <trkpt lat="45.974690" lon="13.656535">
        <ele>232.00</ele>
        <time>2024-06-27T06:11:51Z</time>
      </trkpt>
      <trkpt lat="45.974735" lon="13.656669">
        <ele>233.20</ele>
        <time>2024-06-27T06:11:57Z</time>
      </trkpt>
      <trkpt lat="45.974742" lon="13.656687">
        <ele>233.20</ele>
        <time>2024-06-27T06:11:58Z</time>
      </trkpt>
      <trkpt lat="45.974774" lon="13.656929">
        <ele>235.60</ele>
        <time>2024-06-27T06:12:13Z</time>
      </trkpt>
      <trkpt lat="45.974775" lon="13.656951">
        <ele>235.80</ele>
        <time>2024-06-27T06:12:14Z</time>
      </trkpt>
      <trkpt lat="45.974789" lon="13.657031">
        <ele>237.00</ele>
        <time>2024-06-27T06:12:18Z</time>
      </trkpt>
      <trkpt lat="45.974789" lon="13.657106">
        <ele>238.20</ele>
        <time>2024-06-27T06:12:22Z</time>
      </trkpt>
      <trkpt lat="45.974801" lon="13.657147">
        <ele>238.80</ele>
        <time>2024-06-27T06:12:24Z</time>
      </trkpt>
      <trkpt lat="45.974806" lon="13.657163">
        <ele>239.00</ele>
        <time>2024-06-27T06:12:25Z</time>
      </trkpt>
      <trkpt lat="45.974816" lon="13.657209">
        <ele>239.60</ele>
        <time>2024-06-27T06:12:33Z</time>
      </trkpt>
      <trkpt lat="45.974849" lon="13.657251">
        <ele>239.80</ele>
        <time>2024-06-27T06:12:47Z</time>
      </trkpt>
      <trkpt lat="45.974891" lon="13.657373">
        <ele>241.00</ele>
        <time>2024-06-27T06:12:55Z</time>
      </trkpt>
      <trkpt lat="45.974901" lon="13.657393">
        <ele>241.20</ele>
        <time>2024-06-27T06:12:56Z</time>
      </trkpt>
      <trkpt lat="45.974924" lon="13.657456">
        <ele>241.60</ele>
        <time>2024-06-27T06:13:00Z</time>
      </trkpt>
      <trkpt lat="45.974938" lon="13.657618">
        <ele>244.00</ele>
        <time>2024-06-27T06:13:08Z</time>
      </trkpt>
      <trkpt lat="45.974940" lon="13.657630">
        <ele>244.00</ele>
        <time>2024-06-27T06:13:09Z</time>
      </trkpt>
      <trkpt lat="45.974938" lon="13.657711">
        <ele>245.60</ele>
        <time>2024-06-27T06:13:16Z</time>
      </trkpt>
      <trkpt lat="45.974964" lon="13.657770">
        <ele>246.00</ele>
        <time>2024-06-27T06:13:38Z</time>
      </trkpt>
      <trkpt lat="45.974955" lon="13.657865">
        <ele>247.80</ele>
        <time>2024-06-27T06:13:46Z</time>
      </trkpt>
      <trkpt lat="45.974954" lon="13.657870">
        <ele>248.00</ele>
        <time>2024-06-27T06:13:47Z</time>
      </trkpt>
      <trkpt lat="45.974939" lon="13.657895">
        <ele>248.80</ele>
        <time>2024-06-27T06:13:58Z</time>
      </trkpt>
      <trkpt lat="45.974931" lon="13.657974">
        <ele>250.00</ele>
        <time>2024-06-27T06:14:02Z</time>
      </trkpt>
      <trkpt lat="45.974903" lon="13.658070">
        <ele>251.60</ele>
        <time>2024-06-27T06:14:10Z</time>
      </trkpt>
      <trkpt lat="45.974902" lon="13.658085">
        <ele>251.80</ele>
        <time>2024-06-27T06:14:11Z</time>
      </trkpt>
      <trkpt lat="45.974933" lon="13.658363">
        <ele>255.40</ele>
        <time>2024-06-27T06:14:49Z</time>
      </trkpt>
      <trkpt lat="45.974945" lon="13.658401">
        <ele>255.80</ele>
        <time>2024-06-27T06:14:50Z</time>
      </trkpt>
      <trkpt lat="45.974955" lon="13.658494">
        <ele>257.20</ele>
        <time>2024-06-27T06:14:56Z</time>
      </trkpt>
      <trkpt lat="45.974995" lon="13.658658">
        <ele>259.40</ele>
        <time>2024-06-27T06:15:05Z</time>
      </trkpt>
      <trkpt lat="45.974999" lon="13.658685">
        <ele>260.00</ele>
        <time>2024-06-27T06:15:06Z</time>
      </trkpt>
      <trkpt lat="45.975031" lon="13.658836">
        <ele>262.20</ele>
        <time>2024-06-27T06:15:24Z</time>
      </trkpt>
      <trkpt lat="45.975061" lon="13.658916">
        <ele>263.40</ele>
        <time>2024-06-27T06:15:30Z</time>
      </trkpt>
      <trkpt lat="45.975076" lon="13.658957">
        <ele>263.60</ele>
        <time>2024-06-27T06:15:31Z</time>
      </trkpt>
      <trkpt lat="45.975157" lon="13.659175">
        <ele>265.00</ele>
        <time>2024-06-27T06:15:41Z</time>
      </trkpt>
      <trkpt lat="45.975162" lon="13.659188">
        <ele>265.20</ele>
        <time>2024-06-27T06:15:42Z</time>
      </trkpt>
      <trkpt lat="45.975192" lon="13.659294">
        <ele>266.60</ele>
        <time>2024-06-27T06:15:47Z</time>
      </trkpt>
      <trkpt lat="45.975196" lon="13.659388">
        <ele>267.80</ele>
        <time>2024-06-27T06:15:51Z</time>
      </trkpt>
      <trkpt lat="45.975197" lon="13.659408">
        <ele>268.20</ele>
        <time>2024-06-27T06:15:52Z</time>
      </trkpt>
      <trkpt lat="45.975181" lon="13.659456">
        <ele>269.00</ele>
        <time>2024-06-27T06:16:03Z</time>
      </trkpt>
      <trkpt lat="45.975190" lon="13.659512">
        <ele>269.80</ele>
        <time>2024-06-27T06:16:14Z</time>
      </trkpt>
      <trkpt lat="45.975246" lon="13.659645">
        <ele>272.20</ele>
        <time>2024-06-27T06:16:19Z</time>
      </trkpt>
      <trkpt lat="45.975253" lon="13.659663">
        <ele>272.60</ele>
        <time>2024-06-27T06:16:20Z</time>
      </trkpt>
      <trkpt lat="45.975277" lon="13.659684">
        <ele>272.80</ele>
        <time>2024-06-27T06:16:23Z</time>
      </trkpt>
      <trkpt lat="45.975287" lon="13.659744">
        <ele>274.20</ele>
        <time>2024-06-27T06:16:28Z</time>
      </trkpt>
      <trkpt lat="45.975306" lon="13.659767">
        <ele>274.60</ele>
        <time>2024-06-27T06:16:36Z</time>
      </trkpt>
      <trkpt lat="45.975376" lon="13.659801">
        <ele>274.40</ele>
        <time>2024-06-27T06:16:45Z</time>
      </trkpt>
      <trkpt lat="45.975384" lon="13.659801">
        <ele>274.20</ele>
        <time>2024-06-27T06:16:46Z</time>
      </trkpt>
      <trkpt lat="45.975417" lon="13.659794">
        <ele>273.60</ele>
        <time>2024-06-27T06:16:50Z</time>
      </trkpt>
      <trkpt lat="45.975475" lon="13.659843">
        <ele>275.00</ele>
        <time>2024-06-27T06:16:57Z</time>
      </trkpt>
      <trkpt lat="45.975497" lon="13.659841">
        <ele>274.80</ele>
        <time>2024-06-27T06:16:59Z</time>
      </trkpt>
      <trkpt lat="45.975528" lon="13.659860">
        <ele>275.40</ele>
        <time>2024-06-27T06:17:02Z</time>
      </trkpt>
      <trkpt lat="45.975546" lon="13.659876">
        <ele>275.80</ele>
        <time>2024-06-27T06:17:03Z</time>
      </trkpt>
      <trkpt lat="45.975611" lon="13.659940">
        <ele>277.40</ele>
        <time>2024-06-27T06:17:32Z</time>
      </trkpt>
      <trkpt lat="45.975706" lon="13.660001">
        <ele>279.00</ele>
        <time>2024-06-27T06:17:46Z</time>
      </trkpt>
      <trkpt lat="45.975713" lon="13.660005">
        <ele>279.00</ele>
        <time>2024-06-27T06:17:47Z</time>
      </trkpt>
      <trkpt lat="45.975866" lon="13.660065">
        <ele>280.40</ele>
        <time>2024-06-27T06:18:00Z</time>
      </trkpt>
      <trkpt lat="45.975874" lon="13.660069">
        <ele>280.60</ele>
        <time>2024-06-27T06:18:01Z</time>
      </trkpt>
      <trkpt lat="45.975940" lon="13.660107">
        <ele>281.40</ele>
        <time>2024-06-27T06:18:08Z</time>
      </trkpt>
      <trkpt lat="45.976038" lon="13.660146">
        <ele>282.80</ele>
        <time>2024-06-27T06:18:16Z</time>
      </trkpt>
      <trkpt lat="45.976046" lon="13.660149">
        <ele>282.80</ele>
        <time>2024-06-27T06:18:17Z</time>
      </trkpt>
      <trkpt lat="45.976116" lon="13.660165">
        <ele>283.60</ele>
        <time>2024-06-27T06:18:25Z</time>
      </trkpt>
      <trkpt lat="45.976198" lon="13.660224">
        <ele>285.40</ele>
        <time>2024-06-27T06:18:33Z</time>
      </trkpt>
      <trkpt lat="45.976208" lon="13.660227">
        <ele>285.40</ele>
        <time>2024-06-27T06:18:34Z</time>
      </trkpt>
      <trkpt lat="45.976333" lon="13.660284">
        <ele>288.40</ele>
        <time>2024-06-27T06:18:45Z</time>
      </trkpt>
      <trkpt lat="45.976380" lon="13.660322">
        <ele>290.00</ele>
        <time>2024-06-27T06:18:49Z</time>
      </trkpt>
      <trkpt lat="45.976398" lon="13.660337">
        <ele>290.60</ele>
        <time>2024-06-27T06:18:50Z</time>
      </trkpt>
      <trkpt lat="45.976478" lon="13.660419">
        <ele>293.80</ele>
        <time>2024-06-27T06:19:00Z</time>
      </trkpt>
      <trkpt lat="45.976526" lon="13.660496">
        <ele>296.40</ele>
        <time>2024-06-27T06:19:05Z</time>
      </trkpt>
      <trkpt lat="45.976533" lon="13.660510">
        <ele>296.80</ele>
        <time>2024-06-27T06:19:06Z</time>
      </trkpt>
      <trkpt lat="45.976594" lon="13.660626">
        <ele>299.20</ele>
        <time>2024-06-27T06:19:15Z</time>
      </trkpt>
      <trkpt lat="45.976613" lon="13.660718">
        <ele>300.40</ele>
        <time>2024-06-27T06:19:21Z</time>
      </trkpt>
      <trkpt lat="45.976618" lon="13.660730">
        <ele>300.60</ele>
        <time>2024-06-27T06:19:22Z</time>
      </trkpt>
      <trkpt lat="45.976630" lon="13.660782">
        <ele>301.40</ele>
        <time>2024-06-27T06:19:25Z</time>
      </trkpt>
      <trkpt lat="45.976689" lon="13.660893">
        <ele>303.00</ele>
        <time>2024-06-27T06:19:33Z</time>
      </trkpt>
      <trkpt lat="45.976714" lon="13.660972">
        <ele>304.00</ele>
        <time>2024-06-27T06:19:38Z</time>
      </trkpt>
      <trkpt lat="45.976720" lon="13.660991">
        <ele>304.20</ele>
        <time>2024-06-27T06:19:39Z</time>
      </trkpt>
      <trkpt lat="45.976733" lon="13.661087">
        <ele>305.40</ele>
        <time>2024-06-27T06:19:43Z</time>
      </trkpt>
      <trkpt lat="45.976777" lon="13.661190">
        <ele>306.40</ele>
        <time>2024-06-27T06:19:49Z</time>
      </trkpt>
      <trkpt lat="45.976785" lon="13.661208">
        <ele>306.60</ele>
        <time>2024-06-27T06:19:50Z</time>
      </trkpt>
      <trkpt lat="45.976796" lon="13.661300">
        <ele>307.00</ele>
        <time>2024-06-27T06:20:08Z</time>
      </trkpt>
      <trkpt lat="45.976861" lon="13.661423">
        <ele>306.80</ele>
        <time>2024-06-27T06:20:16Z</time>
      </trkpt>
      <trkpt lat="45.976869" lon="13.661432">
        <ele>306.80</ele>
        <time>2024-06-27T06:20:17Z</time>
      </trkpt>
      <trkpt lat="45.976923" lon="13.661523">
        <ele>305.40</ele>
        <time>2024-06-27T06:20:23Z</time>
      </trkpt>
      <trkpt lat="45.976960" lon="13.661613">
        <ele>304.80</ele>
        <time>2024-06-27T06:20:28Z</time>
      </trkpt>
      <trkpt lat="45.976967" lon="13.661632">
        <ele>304.80</ele>
        <time>2024-06-27T06:20:29Z</time>
      </trkpt>
      <trkpt lat="45.977042" lon="13.661835">
        <ele>304.00</ele>
        <time>2024-06-27T06:20:40Z</time>
      </trkpt>
      <trkpt lat="45.977047" lon="13.661856">
        <ele>304.00</ele>
        <time>2024-06-27T06:20:41Z</time>
      </trkpt>
      <trkpt lat="45.977122" lon="13.662065">
        <ele>303.60</ele>
        <time>2024-06-27T06:20:53Z</time>
      </trkpt>
      <trkpt lat="45.977129" lon="13.662085">
        <ele>303.60</ele>
        <time>2024-06-27T06:20:54Z</time>
      </trkpt>
      <trkpt lat="45.977172" lon="13.662173">
        <ele>303.20</ele>
        <time>2024-06-27T06:20:59Z</time>
      </trkpt>
      <trkpt lat="45.977202" lon="13.662265">
        <ele>303.20</ele>
        <time>2024-06-27T06:21:04Z</time>
      </trkpt>
      <trkpt lat="45.977212" lon="13.662288">
        <ele>303.40</ele>
        <time>2024-06-27T06:21:05Z</time>
      </trkpt>
      <trkpt lat="45.977240" lon="13.662366">
        <ele>303.60</ele>
        <time>2024-06-27T06:21:09Z</time>
      </trkpt>
      <trkpt lat="45.977286" lon="13.662446">
        <ele>303.40</ele>
        <time>2024-06-27T06:21:14Z</time>
      </trkpt>
      <trkpt lat="45.977295" lon="13.662463">
        <ele>303.40</ele>
        <time>2024-06-27T06:21:15Z</time>
      </trkpt>
      <trkpt lat="45.977323" lon="13.662532">
        <ele>303.40</ele>
        <time>2024-06-27T06:21:19Z</time>
      </trkpt>
      <trkpt lat="45.977396" lon="13.662619">
        <ele>304.00</ele>
        <time>2024-06-27T06:21:26Z</time>
      </trkpt>
      <trkpt lat="45.977407" lon="13.662632">
        <ele>304.40</ele>
        <time>2024-06-27T06:21:27Z</time>
      </trkpt>
      <trkpt lat="45.977455" lon="13.662690">
        <ele>305.20</ele>
        <time>2024-06-27T06:21:32Z</time>
      </trkpt>
      <trkpt lat="45.977531" lon="13.662757">
        <ele>306.60</ele>
        <time>2024-06-27T06:21:38Z</time>
      </trkpt>
      <trkpt lat="45.977545" lon="13.662766">
        <ele>306.80</ele>
        <time>2024-06-27T06:21:39Z</time>
      </trkpt>
      <trkpt lat="45.977622" lon="13.662858">
        <ele>308.00</ele>
        <time>2024-06-27T06:21:46Z</time>
      </trkpt>
      <trkpt lat="45.977636" lon="13.662922">
        <ele>308.00</ele>
        <time>2024-06-27T06:21:49Z</time>
      </trkpt>
      <trkpt lat="45.977645" lon="13.662941">
        <ele>308.00</ele>
        <time>2024-06-27T06:21:50Z</time>
      </trkpt>
      <trkpt lat="45.977717" lon="13.663122">
        <ele>307.60</ele>
        <time>2024-06-27T06:22:00Z</time>
      </trkpt>
      <trkpt lat="45.977722" lon="13.663141">
        <ele>307.60</ele>
        <time>2024-06-27T06:22:01Z</time>
      </trkpt>
      <trkpt lat="45.977755" lon="13.663268">
        <ele>307.60</ele>
        <time>2024-06-27T06:22:07Z</time>
      </trkpt>
      <trkpt lat="45.977791" lon="13.663355">
        <ele>307.40</ele>
        <time>2024-06-27T06:22:12Z</time>
      </trkpt>
      <trkpt lat="45.977801" lon="13.663371">
        <ele>307.40</ele>
        <time>2024-06-27T06:22:13Z</time>
      </trkpt>
      <trkpt lat="45.977886" lon="13.663559">
        <ele>308.40</ele>
        <time>2024-06-27T06:22:24Z</time>
      </trkpt>
      <trkpt lat="45.977895" lon="13.663575">
        <ele>308.40</ele>
        <time>2024-06-27T06:22:25Z</time>
      </trkpt>
      <trkpt lat="45.977986" lon="13.663722">
        <ele>309.80</ele>
        <time>2024-06-27T06:22:35Z</time>
      </trkpt>
      <trkpt lat="45.977996" lon="13.663733">
        <ele>309.80</ele>
        <time>2024-06-27T06:22:36Z</time>
      </trkpt>
      <trkpt lat="45.978065" lon="13.663832">
        <ele>311.00</ele>
        <time>2024-06-27T06:22:42Z</time>
      </trkpt>
      <trkpt lat="45.978093" lon="13.663905">
        <ele>312.00</ele>
        <time>2024-06-27T06:22:46Z</time>
      </trkpt>
      <trkpt lat="45.978097" lon="13.663925">
        <ele>312.20</ele>
        <time>2024-06-27T06:22:47Z</time>
      </trkpt>
      <trkpt lat="45.978106" lon="13.663967">
        <ele>312.80</ele>
        <time>2024-06-27T06:22:59Z</time>
      </trkpt>
      <trkpt lat="45.978188" lon="13.664074">
        <ele>314.60</ele>
        <time>2024-06-27T06:23:06Z</time>
      </trkpt>
      <trkpt lat="45.978199" lon="13.664091">
        <ele>314.60</ele>
        <time>2024-06-27T06:23:07Z</time>
      </trkpt>
      <trkpt lat="45.978254" lon="13.664230">
        <ele>315.40</ele>
        <time>2024-06-27T06:23:15Z</time>
      </trkpt>
      <trkpt lat="45.978294" lon="13.664296">
        <ele>315.80</ele>
        <time>2024-06-27T06:23:19Z</time>
      </trkpt>
      <trkpt lat="45.978297" lon="13.664292">
        <ele>315.60</ele>
        <time>2024-06-27T06:23:20Z</time>
      </trkpt>
      <trkpt lat="45.978337" lon="13.664360">
        <ele>316.00</ele>
        <time>2024-06-27T06:23:40Z</time>
      </trkpt>
      <trkpt lat="45.978414" lon="13.664380">
        <ele>314.20</ele>
        <time>2024-06-27T06:23:45Z</time>
      </trkpt>
      <trkpt lat="45.978431" lon="13.664389">
        <ele>313.80</ele>
        <time>2024-06-27T06:23:46Z</time>
      </trkpt>
      <trkpt lat="45.978502" lon="13.664382">
        <ele>311.80</ele>
        <time>2024-06-27T06:23:51Z</time>
      </trkpt>
      <trkpt lat="45.978578" lon="13.664409">
        <ele>310.80</ele>
        <time>2024-06-27T06:23:56Z</time>
      </trkpt>
      <trkpt lat="45.978589" lon="13.664413">
        <ele>310.60</ele>
        <time>2024-06-27T06:23:57Z</time>
      </trkpt>
      <trkpt lat="45.978619" lon="13.664440">
        <ele>310.60</ele>
        <time>2024-06-27T06:23:59Z</time>
      </trkpt>
      <trkpt lat="45.978734" lon="13.664504">
        <ele>309.80</ele>
        <time>2024-06-27T06:24:06Z</time>
      </trkpt>
      <trkpt lat="45.978748" lon="13.664514">
        <ele>309.80</ele>
        <time>2024-06-27T06:24:07Z</time>
      </trkpt>
      <trkpt lat="45.978872" lon="13.664649">
        <ele>312.40</ele>
        <time>2024-06-27T06:24:17Z</time>
      </trkpt>
      <trkpt lat="45.978883" lon="13.664659">
        <ele>312.60</ele>
        <time>2024-06-27T06:24:18Z</time>
      </trkpt>
      <trkpt lat="45.978969" lon="13.664759">
        <ele>314.60</ele>
        <time>2024-06-27T06:24:26Z</time>
      </trkpt>
      <trkpt lat="45.979009" lon="13.664789">
        <ele>315.00</ele>
        <time>2024-06-27T06:24:29Z</time>
      </trkpt>
      <trkpt lat="45.979021" lon="13.664796">
        <ele>315.00</ele>
        <time>2024-06-27T06:24:30Z</time>
      </trkpt>
      <trkpt lat="45.979122" lon="13.664838">
        <ele>314.40</ele>
        <time>2024-06-27T06:24:37Z</time>
      </trkpt>
      <trkpt lat="45.979158" lon="13.664866">
        <ele>314.80</ele>
        <time>2024-06-27T06:24:39Z</time>
      </trkpt>
      <trkpt lat="45.979173" lon="13.664880">
        <ele>315.00</ele>
        <time>2024-06-27T06:24:40Z</time>
      </trkpt>
      <trkpt lat="45.979249" lon="13.664990">
        <ele>317.20</ele>
        <time>2024-06-27T06:24:46Z</time>
      </trkpt>
      <trkpt lat="45.979276" lon="13.665045">
        <ele>318.40</ele>
        <time>2024-06-27T06:24:49Z</time>
      </trkpt>
      <trkpt lat="45.979284" lon="13.665067">
        <ele>318.80</ele>
        <time>2024-06-27T06:24:50Z</time>
      </trkpt>
      <trkpt lat="45.979346" lon="13.665244">
        <ele>320.20</ele>
        <time>2024-06-27T06:24:59Z</time>
      </trkpt>
      <trkpt lat="45.979351" lon="13.665262">
        <ele>320.40</ele>
        <time>2024-06-27T06:25:00Z</time>
      </trkpt>
      <trkpt lat="45.979422" lon="13.665452">
        <ele>322.20</ele>
        <time>2024-06-27T06:25:10Z</time>
      </trkpt>
      <trkpt lat="45.979431" lon="13.665468">
        <ele>322.20</ele>
        <time>2024-06-27T06:25:11Z</time>
      </trkpt>
      <trkpt lat="45.979512" lon="13.665565">
        <ele>321.80</ele>
        <time>2024-06-27T06:25:17Z</time>
      </trkpt>
      <trkpt lat="45.979561" lon="13.665598">
        <ele>321.40</ele>
        <time>2024-06-27T06:25:20Z</time>
      </trkpt>
      <trkpt lat="45.979577" lon="13.665604">
        <ele>321.00</ele>
        <time>2024-06-27T06:25:21Z</time>
      </trkpt>
      <trkpt lat="45.979612" lon="13.665619">
        <ele>320.80</ele>
        <time>2024-06-27T06:25:24Z</time>
      </trkpt>
      <trkpt lat="45.979661" lon="13.665614">
        <ele>319.80</ele>
        <time>2024-06-27T06:25:28Z</time>
      </trkpt>
      <trkpt lat="45.979691" lon="13.665606">
        <ele>319.00</ele>
        <time>2024-06-27T06:25:30Z</time>
      </trkpt>
      <trkpt lat="45.979747" lon="13.665571">
        <ele>317.20</ele>
        <time>2024-06-27T06:25:33Z</time>
      </trkpt>
      <trkpt lat="45.979763" lon="13.665563">
        <ele>316.80</ele>
        <time>2024-06-27T06:25:34Z</time>
      </trkpt>
      <trkpt lat="45.979886" lon="13.665468">
        <ele>313.80</ele>
        <time>2024-06-27T06:25:43Z</time>
      </trkpt>
      <trkpt lat="45.979898" lon="13.665455">
        <ele>313.60</ele>
        <time>2024-06-27T06:25:44Z</time>
      </trkpt>
      <trkpt lat="45.980019" lon="13.665327">
        <ele>310.60</ele>
        <time>2024-06-27T06:25:53Z</time>
      </trkpt>
      <trkpt lat="45.980029" lon="13.665315">
        <ele>310.00</ele>
        <time>2024-06-27T06:25:54Z</time>
      </trkpt>
      <trkpt lat="45.980066" lon="13.665269">
        <ele>308.40</ele>
        <time>2024-06-27T06:25:57Z</time>
      </trkpt>
      <trkpt lat="45.980144" lon="13.665205">
        <ele>305.80</ele>
        <time>2024-06-27T06:26:03Z</time>
      </trkpt>
      <trkpt lat="45.980159" lon="13.665197">
        <ele>305.40</ele>
        <time>2024-06-27T06:26:04Z</time>
      </trkpt>
      <trkpt lat="45.980211" lon="13.665148">
        <ele>303.60</ele>
        <time>2024-06-27T06:26:08Z</time>
      </trkpt>
      <trkpt lat="45.980278" lon="13.665062">
        <ele>300.60</ele>
        <time>2024-06-27T06:26:14Z</time>
      </trkpt>
      <trkpt lat="45.980292" lon="13.665048">
        <ele>300.00</ele>
        <time>2024-06-27T06:26:15Z</time>
      </trkpt>
      <trkpt lat="45.980331" lon="13.665018">
        <ele>299.00</ele>
        <time>2024-06-27T06:26:18Z</time>
      </trkpt>
      <trkpt lat="45.980431" lon="13.664981">
        <ele>297.80</ele>
        <time>2024-06-27T06:26:24Z</time>
      </trkpt>
      <trkpt lat="45.980449" lon="13.664976">
        <ele>297.80</ele>
        <time>2024-06-27T06:26:25Z</time>
      </trkpt>
      <trkpt lat="45.980586" lon="13.664941">
        <ele>297.40</ele>
        <time>2024-06-27T06:26:34Z</time>
      </trkpt>
      <trkpt lat="45.980599" lon="13.664937">
        <ele>297.60</ele>
        <time>2024-06-27T06:26:35Z</time>
      </trkpt>
      <trkpt lat="45.980656" lon="13.664929">
        <ele>297.80</ele>
        <time>2024-06-27T06:26:39Z</time>
      </trkpt>
      <trkpt lat="45.980730" lon="13.664965">
        <ele>299.00</ele>
        <time>2024-06-27T06:26:44Z</time>
      </trkpt>
      <trkpt lat="45.980744" lon="13.664979">
        <ele>299.20</ele>
        <time>2024-06-27T06:26:45Z</time>
      </trkpt>
      <trkpt lat="45.980815" lon="13.665028">
        <ele>300.00</ele>
        <time>2024-06-27T06:26:50Z</time>
      </trkpt>
      <trkpt lat="45.980863" lon="13.665082">
        <ele>301.20</ele>
        <time>2024-06-27T06:26:54Z</time>
      </trkpt>
      <trkpt lat="45.980878" lon="13.665096">
        <ele>301.60</ele>
        <time>2024-06-27T06:26:55Z</time>
      </trkpt>
      <trkpt lat="45.981019" lon="13.665214">
        <ele>302.80</ele>
        <time>2024-06-27T06:27:05Z</time>
      </trkpt>
      <trkpt lat="45.981036" lon="13.665226">
        <ele>302.60</ele>
        <time>2024-06-27T06:27:06Z</time>
      </trkpt>
      <trkpt lat="45.981080" lon="13.665258">
        <ele>302.20</ele>
        <time>2024-06-27T06:27:09Z</time>
      </trkpt>
      <trkpt lat="45.981173" lon="13.665356">
        <ele>302.40</ele>
        <time>2024-06-27T06:27:17Z</time>
      </trkpt>
      <trkpt lat="45.981183" lon="13.665367">
        <ele>302.60</ele>
        <time>2024-06-27T06:27:18Z</time>
      </trkpt>
      <trkpt lat="45.981305" lon="13.665495">
        <ele>303.00</ele>
        <time>2024-06-27T06:27:27Z</time>
      </trkpt>
      <trkpt lat="45.981319" lon="13.665511">
        <ele>303.00</ele>
        <time>2024-06-27T06:27:28Z</time>
      </trkpt>
      <trkpt lat="45.981380" lon="13.665591">
        <ele>303.80</ele>
        <time>2024-06-27T06:27:33Z</time>
      </trkpt>
      <trkpt lat="45.981419" lon="13.665673">
        <ele>305.40</ele>
        <time>2024-06-27T06:27:37Z</time>
      </trkpt>
      <trkpt lat="45.981429" lon="13.665687">
        <ele>305.40</ele>
        <time>2024-06-27T06:27:38Z</time>
      </trkpt>
      <trkpt lat="45.981491" lon="13.665765">
        <ele>306.00</ele>
        <time>2024-06-27T06:27:45Z</time>
      </trkpt>
      <trkpt lat="45.981571" lon="13.665833">
        <ele>306.40</ele>
        <time>2024-06-27T06:27:52Z</time>
      </trkpt>
      <trkpt lat="45.981584" lon="13.665839">
        <ele>306.40</ele>
        <time>2024-06-27T06:27:53Z</time>
      </trkpt>
      <trkpt lat="45.981718" lon="13.665864">
        <ele>305.00</ele>
        <time>2024-06-27T06:28:02Z</time>
      </trkpt>
      <trkpt lat="45.981735" lon="13.665863">
        <ele>304.60</ele>
        <time>2024-06-27T06:28:03Z</time>
      </trkpt>
      <trkpt lat="45.981760" lon="13.665872">
        <ele>304.40</ele>
        <time>2024-06-27T06:28:05Z</time>
      </trkpt>
      <trkpt lat="45.981840" lon="13.665870">
        <ele>304.00</ele>
        <time>2024-06-27T06:28:10Z</time>
      </trkpt>
      <trkpt lat="45.981894" lon="13.665844">
        <ele>303.60</ele>
        <time>2024-06-27T06:28:13Z</time>
      </trkpt>
      <trkpt lat="45.981911" lon="13.665837">
        <ele>303.60</ele>
        <time>2024-06-27T06:28:14Z</time>
      </trkpt>
      <trkpt lat="45.981973" lon="13.665793">
        <ele>302.40</ele>
        <time>2024-06-27T06:28:19Z</time>
      </trkpt>
      <trkpt lat="45.982048" lon="13.665777">
        <ele>302.60</ele>
        <time>2024-06-27T06:28:24Z</time>
      </trkpt>
      <trkpt lat="45.982065" lon="13.665765">
        <ele>302.40</ele>
        <time>2024-06-27T06:28:25Z</time>
      </trkpt>
      <trkpt lat="45.982098" lon="13.665753">
        <ele>302.20</ele>
        <time>2024-06-27T06:28:27Z</time>
      </trkpt>
      <trkpt lat="45.982230" lon="13.665734">
        <ele>302.40</ele>
        <time>2024-06-27T06:28:36Z</time>
      </trkpt>
      <trkpt lat="45.982248" lon="13.665732">
        <ele>302.40</ele>
        <time>2024-06-27T06:28:37Z</time>
      </trkpt>
      <trkpt lat="45.982380" lon="13.665702">
        <ele>302.40</ele>
        <time>2024-06-27T06:28:46Z</time>
      </trkpt>
      <trkpt lat="45.982426" lon="13.665705">
        <ele>303.20</ele>
        <time>2024-06-27T06:28:49Z</time>
      </trkpt>
      <trkpt lat="45.982442" lon="13.665705">
        <ele>303.40</ele>
        <time>2024-06-27T06:28:50Z</time>
      </trkpt>
      <trkpt lat="45.982493" lon="13.665698">
        <ele>303.80</ele>
        <time>2024-06-27T06:28:54Z</time>
      </trkpt>
      <trkpt lat="45.982596" lon="13.665645">
        <ele>303.20</ele>
        <time>2024-06-27T06:29:01Z</time>
      </trkpt>
      <trkpt lat="45.982608" lon="13.665640">
        <ele>303.20</ele>
        <time>2024-06-27T06:29:02Z</time>
      </trkpt>
      <trkpt lat="45.982651" lon="13.665614">
        <ele>303.20</ele>
        <time>2024-06-27T06:29:05Z</time>
      </trkpt>
      <trkpt lat="45.982748" lon="13.665516">
        <ele>304.80</ele>
        <time>2024-06-27T06:29:14Z</time>
      </trkpt>
      <trkpt lat="45.982755" lon="13.665508">
        <ele>304.80</ele>
        <time>2024-06-27T06:29:15Z</time>
      </trkpt>
      <trkpt lat="45.982778" lon="13.665460">
        <ele>304.60</ele>
        <time>2024-06-27T06:29:18Z</time>
      </trkpt>
      <trkpt lat="45.982782" lon="13.665404">
        <ele>303.20</ele>
        <time>2024-06-27T06:29:21Z</time>
      </trkpt>
      <trkpt lat="45.982829" lon="13.665294">
        <ele>302.20</ele>
        <time>2024-06-27T06:29:28Z</time>
      </trkpt>
      <trkpt lat="45.982834" lon="13.665281">
        <ele>302.20</ele>
        <time>2024-06-27T06:29:29Z</time>
      </trkpt>
      <trkpt lat="45.982912" lon="13.665106">
        <ele>301.40</ele>
        <time>2024-06-27T06:29:38Z</time>
      </trkpt>
      <trkpt lat="45.982922" lon="13.665085">
        <ele>301.20</ele>
        <time>2024-06-27T06:29:39Z</time>
      </trkpt>
      <trkpt lat="45.982962" lon="13.664958">
        <ele>301.00</ele>
        <time>2024-06-27T06:29:46Z</time>
      </trkpt>
      <trkpt lat="45.982991" lon="13.664913">
        <ele>301.60</ele>
        <time>2024-06-27T06:29:49Z</time>
      </trkpt>
      <trkpt lat="45.982997" lon="13.664899">
        <ele>301.60</ele>
        <time>2024-06-27T06:29:50Z</time>
      </trkpt>
      <trkpt lat="45.983078" lon="13.664732">
        <ele>304.00</ele>
        <time>2024-06-27T06:29:59Z</time>
      </trkpt>
      <trkpt lat="45.983086" lon="13.664717">
        <ele>304.20</ele>
        <time>2024-06-27T06:30:00Z</time>
      </trkpt>
      <trkpt lat="45.983198" lon="13.664545">
        <ele>307.00</ele>
        <time>2024-06-27T06:30:12Z</time>
      </trkpt>
      <trkpt lat="45.983209" lon="13.664527">
        <ele>307.20</ele>
        <time>2024-06-27T06:30:13Z</time>
      </trkpt>
      <trkpt lat="45.983317" lon="13.664388">
        <ele>308.80</ele>
        <time>2024-06-27T06:30:23Z</time>
      </trkpt>
      <trkpt lat="45.983327" lon="13.664373">
        <ele>309.00</ele>
        <time>2024-06-27T06:30:24Z</time>
      </trkpt>
      <trkpt lat="45.983452" lon="13.664227">
        <ele>311.60</ele>
        <time>2024-06-27T06:30:35Z</time>
      </trkpt>
      <trkpt lat="45.983461" lon="13.664215">
        <ele>311.80</ele>
        <time>2024-06-27T06:30:36Z</time>
      </trkpt>
      <trkpt lat="45.983534" lon="13.664147">
        <ele>312.20</ele>
        <time>2024-06-27T06:30:43Z</time>
      </trkpt>
      <trkpt lat="45.983633" lon="13.664083">
        <ele>313.60</ele>
        <time>2024-06-27T06:30:51Z</time>
      </trkpt>
      <trkpt lat="45.983646" lon="13.664077">
        <ele>313.80</ele>
        <time>2024-06-27T06:30:52Z</time>
      </trkpt>
      <trkpt lat="45.983706" lon="13.664039">
        <ele>315.00</ele>
        <time>2024-06-27T06:30:56Z</time>
      </trkpt>
      <trkpt lat="45.983769" lon="13.663973">
        <ele>315.60</ele>
        <time>2024-06-27T06:31:01Z</time>
      </trkpt>
      <trkpt lat="45.983782" lon="13.663962">
        <ele>315.60</ele>
        <time>2024-06-27T06:31:02Z</time>
      </trkpt>
      <trkpt lat="45.983855" lon="13.663871">
        <ele>315.40</ele>
        <time>2024-06-27T06:31:09Z</time>
      </trkpt>
      <trkpt lat="45.983872" lon="13.663875">
        <ele>316.00</ele>
        <time>2024-06-27T06:31:10Z</time>
      </trkpt>
      <trkpt lat="45.983910" lon="13.663838">
        <ele>316.00</ele>
        <time>2024-06-27T06:31:13Z</time>
      </trkpt>
      <trkpt lat="45.983922" lon="13.663830">
        <ele>316.20</ele>
        <time>2024-06-27T06:31:14Z</time>
      </trkpt>
      <trkpt lat="45.983988" lon="13.663760">
        <ele>317.40</ele>
        <time>2024-06-27T06:31:26Z</time>
      </trkpt>
      <trkpt lat="45.984055" lon="13.663649">
        <ele>317.80</ele>
        <time>2024-06-27T06:31:34Z</time>
      </trkpt>
      <trkpt lat="45.984067" lon="13.663642">
        <ele>318.00</ele>
        <time>2024-06-27T06:31:35Z</time>
      </trkpt>
      <trkpt lat="45.984136" lon="13.663558">
        <ele>318.20</ele>
        <time>2024-06-27T06:31:42Z</time>
      </trkpt>
      <trkpt lat="45.984205" lon="13.663508">
        <ele>319.40</ele>
        <time>2024-06-27T06:31:47Z</time>
      </trkpt>
      <trkpt lat="45.984219" lon="13.663500">
        <ele>319.60</ele>
        <time>2024-06-27T06:31:48Z</time>
      </trkpt>
      <trkpt lat="45.984310" lon="13.663344">
        <ele>319.40</ele>
        <time>2024-06-27T06:31:57Z</time>
      </trkpt>
      <trkpt lat="45.984320" lon="13.663328">
        <ele>319.40</ele>
        <time>2024-06-27T06:31:58Z</time>
      </trkpt>
      <trkpt lat="45.984357" lon="13.663266">
        <ele>318.80</ele>
        <time>2024-06-27T06:32:04Z</time>
      </trkpt>
      <trkpt lat="45.984363" lon="13.663204">
        <ele>317.60</ele>
        <time>2024-06-27T06:32:24Z</time>
      </trkpt>
      <trkpt lat="45.984408" lon="13.663133">
        <ele>317.00</ele>
        <time>2024-06-27T06:32:52Z</time>
      </trkpt>
      <trkpt lat="45.984418" lon="13.663123">
        <ele>317.00</ele>
        <time>2024-06-27T06:32:53Z</time>
      </trkpt>
      <trkpt lat="45.984459" lon="13.663070">
        <ele>316.20</ele>
        <time>2024-06-27T06:32:58Z</time>
      </trkpt>
      <trkpt lat="45.984527" lon="13.662947">
        <ele>314.00</ele>
        <time>2024-06-27T06:33:06Z</time>
      </trkpt>
      <trkpt lat="45.984539" lon="13.662930">
        <ele>314.00</ele>
        <time>2024-06-27T06:33:07Z</time>
      </trkpt>
      <trkpt lat="45.984679" lon="13.662834">
        <ele>315.80</ele>
        <time>2024-06-27T06:33:17Z</time>
      </trkpt>
      <trkpt lat="45.984694" lon="13.662824">
        <ele>316.20</ele>
        <time>2024-06-27T06:33:18Z</time>
      </trkpt>
      <trkpt lat="45.984832" lon="13.662744">
        <ele>318.60</ele>
        <time>2024-06-27T06:33:28Z</time>
      </trkpt>
      <trkpt lat="45.984849" lon="13.662737">
        <ele>319.00</ele>
        <time>2024-06-27T06:33:29Z</time>
      </trkpt>
      <trkpt lat="45.984889" lon="13.662708">
        <ele>319.40</ele>
        <time>2024-06-27T06:33:32Z</time>
      </trkpt>
      <trkpt lat="45.984936" lon="13.662689">
        <ele>320.20</ele>
        <time>2024-06-27T06:33:35Z</time>
      </trkpt>
      <trkpt lat="45.984969" lon="13.662685">
        <ele>321.20</ele>
        <time>2024-06-27T06:33:37Z</time>
      </trkpt>
      <trkpt lat="45.984986" lon="13.662693">
        <ele>322.00</ele>
        <time>2024-06-27T06:33:38Z</time>
      </trkpt>
      <trkpt lat="45.985003" lon="13.662694">
        <ele>322.60</ele>
        <time>2024-06-27T06:33:39Z</time>
      </trkpt>
      <trkpt lat="45.985142" lon="13.662653">
        <ele>326.80</ele>
        <time>2024-06-27T06:33:48Z</time>
      </trkpt>
      <trkpt lat="45.985156" lon="13.662640">
        <ele>326.80</ele>
        <time>2024-06-27T06:33:49Z</time>
      </trkpt>
      <trkpt lat="45.985232" lon="13.662572">
        <ele>327.60</ele>
        <time>2024-06-27T06:33:55Z</time>
      </trkpt>
      <trkpt lat="45.985280" lon="13.662496">
        <ele>327.20</ele>
        <time>2024-06-27T06:34:00Z</time>
      </trkpt>
      <trkpt lat="45.985290" lon="13.662478">
        <ele>326.80</ele>
        <time>2024-06-27T06:34:01Z</time>
      </trkpt>
      <trkpt lat="45.985367" lon="13.662324">
        <ele>326.20</ele>
        <time>2024-06-27T06:34:11Z</time>
      </trkpt>
      <trkpt lat="45.985391" lon="13.662294">
        <ele>326.60</ele>
        <time>2024-06-27T06:34:13Z</time>
      </trkpt>
      <trkpt lat="45.985401" lon="13.662277">
        <ele>326.80</ele>
        <time>2024-06-27T06:34:14Z</time>
      </trkpt>
      <trkpt lat="45.985456" lon="13.662216">
        <ele>326.20</ele>
        <time>2024-06-27T06:34:19Z</time>
      </trkpt>
      <trkpt lat="45.985519" lon="13.662165">
        <ele>326.00</ele>
        <time>2024-06-27T06:34:24Z</time>
      </trkpt>
      <trkpt lat="45.985531" lon="13.662157">
        <ele>326.00</ele>
        <time>2024-06-27T06:34:25Z</time>
      </trkpt>
      <trkpt lat="45.985582" lon="13.662130">
        <ele>326.20</ele>
        <time>2024-06-27T06:34:30Z</time>
      </trkpt>
      <trkpt lat="45.985672" lon="13.662105">
        <ele>326.40</ele>
        <time>2024-06-27T06:34:36Z</time>
      </trkpt>
      <trkpt lat="45.985685" lon="13.662106">
        <ele>326.80</ele>
        <time>2024-06-27T06:34:37Z</time>
      </trkpt>
      <trkpt lat="45.985755" lon="13.662098">
        <ele>327.20</ele>
        <time>2024-06-27T06:34:42Z</time>
      </trkpt>
      <trkpt lat="45.985859" lon="13.662127">
        <ele>330.20</ele>
        <time>2024-06-27T06:34:50Z</time>
      </trkpt>
      <trkpt lat="45.985870" lon="13.662128">
        <ele>330.60</ele>
        <time>2024-06-27T06:34:51Z</time>
      </trkpt>
      <trkpt lat="45.986028" lon="13.662120">
        <ele>334.20</ele>
        <time>2024-06-27T06:35:04Z</time>
      </trkpt>
      <trkpt lat="45.986039" lon="13.662126">
        <ele>334.60</ele>
        <time>2024-06-27T06:35:05Z</time>
      </trkpt>
      <trkpt lat="45.986133" lon="13.662132">
        <ele>337.40</ele>
        <time>2024-06-27T06:35:13Z</time>
      </trkpt>
      <trkpt lat="45.986179" lon="13.662119">
        <ele>338.20</ele>
        <time>2024-06-27T06:35:16Z</time>
      </trkpt>
      <trkpt lat="45.986193" lon="13.662117">
        <ele>338.60</ele>
        <time>2024-06-27T06:35:17Z</time>
      </trkpt>
      <trkpt lat="45.986353" lon="13.662083">
        <ele>340.60</ele>
        <time>2024-06-27T06:35:28Z</time>
      </trkpt>
      <trkpt lat="45.986363" lon="13.662082">
        <ele>340.60</ele>
        <time>2024-06-27T06:35:29Z</time>
      </trkpt>
      <trkpt lat="45.986405" lon="13.662081">
        <ele>341.00</ele>
        <time>2024-06-27T06:35:32Z</time>
      </trkpt>
      <trkpt lat="45.986508" lon="13.662055">
        <ele>341.20</ele>
        <time>2024-06-27T06:35:38Z</time>
      </trkpt>
      <trkpt lat="45.986520" lon="13.662054">
        <ele>341.20</ele>
        <time>2024-06-27T06:35:39Z</time>
      </trkpt>
      <trkpt lat="45.986624" lon="13.662007">
        <ele>342.20</ele>
        <time>2024-06-27T06:35:47Z</time>
      </trkpt>
      <trkpt lat="45.986679" lon="13.662003">
        <ele>343.80</ele>
        <time>2024-06-27T06:35:51Z</time>
      </trkpt>
      <trkpt lat="45.986692" lon="13.662002">
        <ele>344.00</ele>
        <time>2024-06-27T06:35:52Z</time>
      </trkpt>
      <trkpt lat="45.986852" lon="13.661932">
        <ele>344.60</ele>
        <time>2024-06-27T06:36:04Z</time>
      </trkpt>
      <trkpt lat="45.986860" lon="13.661929">
        <ele>344.60</ele>
        <time>2024-06-27T06:36:05Z</time>
      </trkpt>
      <trkpt lat="45.986893" lon="13.661931">
        <ele>345.00</ele>
        <time>2024-06-27T06:36:08Z</time>
      </trkpt>
      <trkpt lat="45.986971" lon="13.661963">
        <ele>347.00</ele>
        <time>2024-06-27T06:36:15Z</time>
      </trkpt>
      <trkpt lat="45.987023" lon="13.661963">
        <ele>347.40</ele>
        <time>2024-06-27T06:36:22Z</time>
      </trkpt>
      <trkpt lat="45.987031" lon="13.661959">
        <ele>347.20</ele>
        <time>2024-06-27T06:36:23Z</time>
      </trkpt>
      <trkpt lat="45.987031" lon="13.661950">
        <ele>346.80</ele>
        <time>2024-06-27T06:36:24Z</time>
      </trkpt>
      <trkpt lat="45.987058" lon="13.661944">
        <ele>347.00</ele>
        <time>2024-06-27T06:36:31Z</time>
      </trkpt>
      <trkpt lat="45.987116" lon="13.661946">
        <ele>348.40</ele>
        <time>2024-06-27T06:36:36Z</time>
      </trkpt>
      <trkpt lat="45.987184" lon="13.661917">
        <ele>349.00</ele>
        <time>2024-06-27T06:36:40Z</time>
      </trkpt>
      <trkpt lat="45.987193" lon="13.661906">
        <ele>348.80</ele>
        <time>2024-06-27T06:36:41Z</time>
      </trkpt>
      <trkpt lat="45.987228" lon="13.661844">
        <ele>347.80</ele>
        <time>2024-06-27T06:36:45Z</time>
      </trkpt>
      <trkpt lat="45.987254" lon="13.661835">
        <ele>348.80</ele>
        <time>2024-06-27T06:36:57Z</time>
      </trkpt>
      <trkpt lat="45.987264" lon="13.661816">
        <ele>349.00</ele>
        <time>2024-06-27T06:37:01Z</time>
      </trkpt>
      <trkpt lat="45.987325" lon="13.661768">
        <ele>351.20</ele>
        <time>2024-06-27T06:37:06Z</time>
      </trkpt>
      <trkpt lat="45.987335" lon="13.661759">
        <ele>351.60</ele>
        <time>2024-06-27T06:37:07Z</time>
      </trkpt>
      <trkpt lat="45.987359" lon="13.661748">
        <ele>352.40</ele>
        <time>2024-06-27T06:37:10Z</time>
      </trkpt>
      <trkpt lat="45.987447" lon="13.661778">
        <ele>354.40</ele>
        <time>2024-06-27T06:37:18Z</time>
      </trkpt>
      <trkpt lat="45.987475" lon="13.661777">
        <ele>355.40</ele>
        <time>2024-06-27T06:37:25Z</time>
      </trkpt>
      <trkpt lat="45.987478" lon="13.661777">
        <ele>355.40</ele>
        <time>2024-06-27T06:37:26Z</time>
      </trkpt>
      <trkpt lat="45.987608" lon="13.661784">
        <ele>359.60</ele>
        <time>2024-06-27T06:37:40Z</time>
      </trkpt>
      <trkpt lat="45.987620" lon="13.661781">
        <ele>360.00</ele>
        <time>2024-06-27T06:37:41Z</time>
      </trkpt>
      <trkpt lat="45.987733" lon="13.661803">
        <ele>362.40</ele>
        <time>2024-06-27T06:37:49Z</time>
      </trkpt>
      <trkpt lat="45.987766" lon="13.661796">
        <ele>363.20</ele>
        <time>2024-06-27T06:37:52Z</time>
      </trkpt>
      <trkpt lat="45.987778" lon="13.661791">
        <ele>363.60</ele>
        <time>2024-06-27T06:37:53Z</time>
      </trkpt>
      <trkpt lat="45.987813" lon="13.661795">
        <ele>364.20</ele>
        <time>2024-06-27T06:38:01Z</time>
      </trkpt>
      <trkpt lat="45.987834" lon="13.661775">
        <ele>364.80</ele>
        <time>2024-06-27T06:38:11Z</time>
      </trkpt>
      <trkpt lat="45.987861" lon="13.661685">
        <ele>365.80</ele>
        <time>2024-06-27T06:38:20Z</time>
      </trkpt>
      <trkpt lat="45.987883" lon="13.661680">
        <ele>366.20</ele>
        <time>2024-06-27T06:38:32Z</time>
      </trkpt>
      <trkpt lat="45.987909" lon="13.661694">
        <ele>367.00</ele>
        <time>2024-06-27T06:38:45Z</time>
      </trkpt>
      <trkpt lat="45.987912" lon="13.661696">
        <ele>367.00</ele>
        <time>2024-06-27T06:38:46Z</time>
      </trkpt>
      <trkpt lat="45.987985" lon="13.661544">
        <ele>369.60</ele>
        <time>2024-06-27T06:39:42Z</time>
      </trkpt>
      <trkpt lat="45.988010" lon="13.661521">
        <ele>370.60</ele>
        <time>2024-06-27T06:39:46Z</time>
      </trkpt>
      <trkpt lat="45.988018" lon="13.661519">
        <ele>370.80</ele>
        <time>2024-06-27T06:39:47Z</time>
      </trkpt>
      <trkpt lat="45.988046" lon="13.661533">
        <ele>371.60</ele>
        <time>2024-06-27T06:39:57Z</time>
      </trkpt>
      <trkpt lat="45.988065" lon="13.661508">
        <ele>372.40</ele>
        <time>2024-06-27T06:40:10Z</time>
      </trkpt>
      <trkpt lat="45.988134" lon="13.661357">
        <ele>376.00</ele>
        <time>2024-06-27T06:40:29Z</time>
      </trkpt>
      <trkpt lat="45.988134" lon="13.661357">
        <ele>376.00</ele>
        <time>2024-06-27T06:40:30Z</time>
      </trkpt>
      <trkpt lat="45.988200" lon="13.661308">
        <ele>380.00</ele>
        <time>2024-06-27T06:40:44Z</time>
      </trkpt>
      <trkpt lat="45.988251" lon="13.661302">
        <ele>383.60</ele>
        <time>2024-06-27T06:40:57Z</time>
      </trkpt>
      <trkpt lat="45.988304" lon="13.661324">
        <ele>387.00</ele>
        <time>2024-06-27T06:41:03Z</time>
      </trkpt>
      <trkpt lat="45.988315" lon="13.661325">
        <ele>387.80</ele>
        <time>2024-06-27T06:41:04Z</time>
      </trkpt>
      <trkpt lat="45.988375" lon="13.661340">
        <ele>392.00</ele>
        <time>2024-06-27T06:41:10Z</time>
      </trkpt>
      <trkpt lat="45.988415" lon="13.661337">
        <ele>395.00</ele>
        <time>2024-06-27T06:41:15Z</time>
      </trkpt>
      <trkpt lat="45.988439" lon="13.661322">
        <ele>397.20</ele>
        <time>2024-06-27T06:41:18Z</time>
      </trkpt>
      <trkpt lat="45.988430" lon="13.661292">
        <ele>397.20</ele>
        <time>2024-06-27T06:41:36Z</time>
      </trkpt>
      <trkpt lat="45.988450" lon="13.661266">
        <ele>399.20</ele>
        <time>2024-06-27T06:41:47Z</time>
      </trkpt>
      <trkpt lat="45.988451" lon="13.661266">
        <ele>399.20</ele>
        <time>2024-06-27T06:41:48Z</time>
      </trkpt>
      <trkpt lat="45.988480" lon="13.661238">
        <ele>401.40</ele>
        <time>2024-06-27T06:42:09Z</time>
      </trkpt>
      <trkpt lat="45.988501" lon="13.661265">
        <ele>401.20</ele>
        <time>2024-06-27T06:42:10Z</time>
      </trkpt>
      <trkpt lat="45.988479" lon="13.661287">
        <ele>400.40</ele>
        <time>2024-06-27T06:42:21Z</time>
      </trkpt>
      <trkpt lat="45.988482" lon="13.661257">
        <ele>401.00</ele>
        <time>2024-06-27T06:42:31Z</time>
      </trkpt>
      <trkpt lat="45.988507" lon="13.661193">
        <ele>402.80</ele>
        <time>2024-06-27T06:42:39Z</time>
      </trkpt>
      <trkpt lat="45.988510" lon="13.661183">
        <ele>403.20</ele>
        <time>2024-06-27T06:42:40Z</time>
      </trkpt>
      <trkpt lat="45.988556" lon="13.661163">
        <ele>404.60</ele>
        <time>2024-06-27T06:42:46Z</time>
      </trkpt>
      <trkpt lat="45.988594" lon="13.661124">
        <ele>405.20</ele>
        <time>2024-06-27T06:42:50Z</time>
      </trkpt>
      <trkpt lat="45.988637" lon="13.661100">
        <ele>405.80</ele>
        <time>2024-06-27T06:43:04Z</time>
      </trkpt>
      <trkpt lat="45.988657" lon="13.661072">
        <ele>405.80</ele>
        <time>2024-06-27T06:43:07Z</time>
      </trkpt>
      <trkpt lat="45.988671" lon="13.661068">
        <ele>406.40</ele>
        <time>2024-06-27T06:43:08Z</time>
      </trkpt>
      <trkpt lat="45.988707" lon="13.661037">
        <ele>408.40</ele>
        <time>2024-06-27T06:43:14Z</time>
      </trkpt>
      <trkpt lat="45.988784" lon="13.661011">
        <ele>412.00</ele>
        <time>2024-06-27T06:43:27Z</time>
      </trkpt>
      <trkpt lat="45.988822" lon="13.661017">
        <ele>413.40</ele>
        <time>2024-06-27T06:43:30Z</time>
      </trkpt>
      <trkpt lat="45.988835" lon="13.661009">
        <ele>414.00</ele>
        <time>2024-06-27T06:43:31Z</time>
      </trkpt>
      <trkpt lat="45.988853" lon="13.661000">
        <ele>414.80</ele>
        <time>2024-06-27T06:43:32Z</time>
      </trkpt>
      <trkpt lat="45.988880" lon="13.660986">
        <ele>416.00</ele>
        <time>2024-06-27T06:43:34Z</time>
      </trkpt>
      <trkpt lat="45.988921" lon="13.660982">
        <ele>417.60</ele>
        <time>2024-06-27T06:43:39Z</time>
      </trkpt>
      <trkpt lat="45.988991" lon="13.660875">
        <ele>420.80</ele>
        <time>2024-06-27T06:43:49Z</time>
      </trkpt>
      <trkpt lat="45.989000" lon="13.660860">
        <ele>420.80</ele>
        <time>2024-06-27T06:43:50Z</time>
      </trkpt>
      <trkpt lat="45.989039" lon="13.660814">
        <ele>421.60</ele>
        <time>2024-06-27T06:43:56Z</time>
      </trkpt>
      <trkpt lat="45.989144" lon="13.660724">
        <ele>423.40</ele>
        <time>2024-06-27T06:44:09Z</time>
      </trkpt>
      <trkpt lat="45.989155" lon="13.660715">
        <ele>423.80</ele>
        <time>2024-06-27T06:44:10Z</time>
      </trkpt>
      <trkpt lat="45.989238" lon="13.660649">
        <ele>427.80</ele>
        <time>2024-06-27T06:44:22Z</time>
      </trkpt>
      <trkpt lat="45.989274" lon="13.660575">
        <ele>429.20</ele>
        <time>2024-06-27T06:44:29Z</time>
      </trkpt>
      <trkpt lat="45.989279" lon="13.660568">
        <ele>429.40</ele>
        <time>2024-06-27T06:44:30Z</time>
      </trkpt>
      <trkpt lat="45.989321" lon="13.660500">
        <ele>430.80</ele>
        <time>2024-06-27T06:44:35Z</time>
      </trkpt>
      <trkpt lat="45.989358" lon="13.660500">
        <ele>432.60</ele>
        <time>2024-06-27T06:44:38Z</time>
      </trkpt>
      <trkpt lat="45.989400" lon="13.660485">
        <ele>434.40</ele>
        <time>2024-06-27T06:44:41Z</time>
      </trkpt>
      <trkpt lat="45.989415" lon="13.660478">
        <ele>435.00</ele>
        <time>2024-06-27T06:44:42Z</time>
      </trkpt>
      <trkpt lat="45.989447" lon="13.660462">
        <ele>436.20</ele>
        <time>2024-06-27T06:44:50Z</time>
      </trkpt>
      <trkpt lat="45.989447" lon="13.660431">
        <ele>436.00</ele>
        <time>2024-06-27T06:45:10Z</time>
      </trkpt>
      <trkpt lat="45.989393" lon="13.660310">
        <ele>432.00</ele>
        <time>2024-06-27T06:45:21Z</time>
      </trkpt>
      <trkpt lat="45.989385" lon="13.660294">
        <ele>431.20</ele>
        <time>2024-06-27T06:45:22Z</time>
      </trkpt>
      <trkpt lat="45.989359" lon="13.660263">
        <ele>429.40</ele>
        <time>2024-06-27T06:45:28Z</time>
      </trkpt>
      <trkpt lat="45.989385" lon="13.660257">
        <ele>430.40</ele>
        <time>2024-06-27T06:45:51Z</time>
      </trkpt>
      <trkpt lat="45.989404" lon="13.660235">
        <ele>430.80</ele>
        <time>2024-06-27T06:45:56Z</time>
      </trkpt>
      <trkpt lat="45.989431" lon="13.660226">
        <ele>432.00</ele>
        <time>2024-06-27T06:46:09Z</time>
      </trkpt>
      <trkpt lat="45.989460" lon="13.660202">
        <ele>432.80</ele>
        <time>2024-06-27T06:46:11Z</time>
      </trkpt>
      <trkpt lat="45.989481" lon="13.660169">
        <ele>432.80</ele>
        <time>2024-06-27T06:46:13Z</time>
      </trkpt>
      <trkpt lat="45.989494" lon="13.660154">
        <ele>433.00</ele>
        <time>2024-06-27T06:46:14Z</time>
      </trkpt>
      <trkpt lat="45.989518" lon="13.660124">
        <ele>433.40</ele>
        <time>2024-06-27T06:46:17Z</time>
      </trkpt>
      <trkpt lat="45.989544" lon="13.660116">
        <ele>434.20</ele>
        <time>2024-06-27T06:46:19Z</time>
      </trkpt>
      <trkpt lat="45.989585" lon="13.660122">
        <ele>436.20</ele>
        <time>2024-06-27T06:46:23Z</time>
      </trkpt>
      <trkpt lat="45.989659" lon="13.660100">
        <ele>438.00</ele>
        <time>2024-06-27T06:46:30Z</time>
      </trkpt>
      <trkpt lat="45.989674" lon="13.660104">
        <ele>438.60</ele>
        <time>2024-06-27T06:46:31Z</time>
      </trkpt>
      <trkpt lat="45.989707" lon="13.660103">
        <ele>439.80</ele>
        <time>2024-06-27T06:46:35Z</time>
      </trkpt>
      <trkpt lat="45.989731" lon="13.660078">
        <ele>440.20</ele>
        <time>2024-06-27T06:46:37Z</time>
      </trkpt>
      <trkpt lat="45.989829" lon="13.660059">
        <ele>443.20</ele>
        <time>2024-06-27T06:46:45Z</time>
      </trkpt>
      <trkpt lat="45.989849" lon="13.660061">
        <ele>444.00</ele>
        <time>2024-06-27T06:46:46Z</time>
      </trkpt>
      <trkpt lat="45.989912" lon="13.660054">
        <ele>445.20</ele>
        <time>2024-06-27T06:46:51Z</time>
      </trkpt>
      <trkpt lat="45.989981" lon="13.660065">
        <ele>446.60</ele>
        <time>2024-06-27T06:46:56Z</time>
      </trkpt>
      <trkpt lat="45.990011" lon="13.660085">
        <ele>447.60</ele>
        <time>2024-06-27T06:46:59Z</time>
      </trkpt>
      <trkpt lat="45.990019" lon="13.660094">
        <ele>448.00</ele>
        <time>2024-06-27T06:47:00Z</time>
      </trkpt>
      <trkpt lat="45.990087" lon="13.660134">
        <ele>450.00</ele>
        <time>2024-06-27T06:47:05Z</time>
      </trkpt>
      <trkpt lat="45.990165" lon="13.660153">
        <ele>451.60</ele>
        <time>2024-06-27T06:47:10Z</time>
      </trkpt>
      <trkpt lat="45.990178" lon="13.660164">
        <ele>452.00</ele>
        <time>2024-06-27T06:47:11Z</time>
      </trkpt>
      <trkpt lat="45.990313" lon="13.660258">
        <ele>455.60</ele>
        <time>2024-06-27T06:47:36Z</time>
      </trkpt>
      <trkpt lat="45.990343" lon="13.660263">
        <ele>456.00</ele>
        <time>2024-06-27T06:47:38Z</time>
      </trkpt>
      <trkpt lat="45.990352" lon="13.660265">
        <ele>456.00</ele>
        <time>2024-06-27T06:47:39Z</time>
      </trkpt>
      <trkpt lat="45.990410" lon="13.660245">
        <ele>456.60</ele>
        <time>2024-06-27T06:47:44Z</time>
      </trkpt>
      <trkpt lat="45.990444" lon="13.660256">
        <ele>457.00</ele>
        <time>2024-06-27T06:47:48Z</time>
      </trkpt>
      <trkpt lat="45.990469" lon="13.660265">
        <ele>457.40</ele>
        <time>2024-06-27T06:47:50Z</time>
      </trkpt>
      <trkpt lat="45.990512" lon="13.660318">
        <ele>458.60</ele>
        <time>2024-06-27T06:47:55Z</time>
      </trkpt>
      <trkpt lat="45.990520" lon="13.660337">
        <ele>459.00</ele>
        <time>2024-06-27T06:47:56Z</time>
      </trkpt>
      <trkpt lat="45.990553" lon="13.660392">
        <ele>460.20</ele>
        <time>2024-06-27T06:48:00Z</time>
      </trkpt>
      <trkpt lat="45.990600" lon="13.660406">
        <ele>460.80</ele>
        <time>2024-06-27T06:48:05Z</time>
      </trkpt>
      <trkpt lat="45.990643" lon="13.660492">
        <ele>462.80</ele>
        <time>2024-06-27T06:48:09Z</time>
      </trkpt>
      <trkpt lat="45.990650" lon="13.660523">
        <ele>463.40</ele>
        <time>2024-06-27T06:48:10Z</time>
      </trkpt>
      <trkpt lat="45.990663" lon="13.660571">
        <ele>464.20</ele>
        <time>2024-06-27T06:48:13Z</time>
      </trkpt>
      <trkpt lat="45.990703" lon="13.660632">
        <ele>465.40</ele>
        <time>2024-06-27T06:48:17Z</time>
      </trkpt>
      <trkpt lat="45.990776" lon="13.660656">
        <ele>465.80</ele>
        <time>2024-06-27T06:48:25Z</time>
      </trkpt>
      <trkpt lat="45.990793" lon="13.660664">
        <ele>466.00</ele>
        <time>2024-06-27T06:48:26Z</time>
      </trkpt>
      <trkpt lat="45.990821" lon="13.660665">
        <ele>466.00</ele>
        <time>2024-06-27T06:48:28Z</time>
      </trkpt>
      <trkpt lat="45.990910" lon="13.660712">
        <ele>466.60</ele>
        <time>2024-06-27T06:48:35Z</time>
      </trkpt>
      <trkpt lat="45.990937" lon="13.660715">
        <ele>466.60</ele>
        <time>2024-06-27T06:48:37Z</time>
      </trkpt>
      <trkpt lat="45.990945" lon="13.660718">
        <ele>466.60</ele>
        <time>2024-06-27T06:48:38Z</time>
      </trkpt>
      <trkpt lat="45.991039" lon="13.660776">
        <ele>468.20</ele>
        <time>2024-06-27T06:48:46Z</time>
      </trkpt>
      <trkpt lat="45.991111" lon="13.660844">
        <ele>470.00</ele>
        <time>2024-06-27T06:48:53Z</time>
      </trkpt>
      <trkpt lat="45.991117" lon="13.660853">
        <ele>470.20</ele>
        <time>2024-06-27T06:48:54Z</time>
      </trkpt>
      <trkpt lat="45.991156" lon="13.660907">
        <ele>471.40</ele>
        <time>2024-06-27T06:48:58Z</time>
      </trkpt>
      <trkpt lat="45.991195" lon="13.660921">
        <ele>472.00</ele>
        <time>2024-06-27T06:49:02Z</time>
      </trkpt>
      <trkpt lat="45.991233" lon="13.660956">
        <ele>473.00</ele>
        <time>2024-06-27T06:49:07Z</time>
      </trkpt>
      <trkpt lat="45.991266" lon="13.660965">
        <ele>473.20</ele>
        <time>2024-06-27T06:49:10Z</time>
      </trkpt>
      <trkpt lat="45.991276" lon="13.660967">
        <ele>473.20</ele>
        <time>2024-06-27T06:49:11Z</time>
      </trkpt>
      <trkpt lat="45.991390" lon="13.660957">
        <ele>472.60</ele>
        <time>2024-06-27T06:49:21Z</time>
      </trkpt>
      <trkpt lat="45.991427" lon="13.660984">
        <ele>473.00</ele>
        <time>2024-06-27T06:49:25Z</time>
      </trkpt>
      <trkpt lat="45.991441" lon="13.660994">
        <ele>473.20</ele>
        <time>2024-06-27T06:49:26Z</time>
      </trkpt>
      <trkpt lat="45.991476" lon="13.661018">
        <ele>473.40</ele>
        <time>2024-06-27T06:49:29Z</time>
      </trkpt>
      <trkpt lat="45.991520" lon="13.661031">
        <ele>473.40</ele>
        <time>2024-06-27T06:49:33Z</time>
      </trkpt>
      <trkpt lat="45.991566" lon="13.661035">
        <ele>474.40</ele>
        <time>2024-06-27T06:49:37Z</time>
      </trkpt>
      <trkpt lat="45.991594" lon="13.661021">
        <ele>474.80</ele>
        <time>2024-06-27T06:49:39Z</time>
      </trkpt>
      <trkpt lat="45.991602" lon="13.661012">
        <ele>474.80</ele>
        <time>2024-06-27T06:49:40Z</time>
      </trkpt>
      <trkpt lat="45.991626" lon="13.661006">
        <ele>475.20</ele>
        <time>2024-06-27T06:49:43Z</time>
      </trkpt>
      <trkpt lat="45.991672" lon="13.661013">
        <ele>476.80</ele>
        <time>2024-06-27T06:49:47Z</time>
      </trkpt>
      <trkpt lat="45.991713" lon="13.660979">
        <ele>478.40</ele>
        <time>2024-06-27T06:49:52Z</time>
      </trkpt>
      <trkpt lat="45.991761" lon="13.660971">
        <ele>480.60</ele>
        <time>2024-06-27T06:49:56Z</time>
      </trkpt>
      <trkpt lat="45.991770" lon="13.660964">
        <ele>480.80</ele>
        <time>2024-06-27T06:49:57Z</time>
      </trkpt>
      <trkpt lat="45.991871" lon="13.660900">
        <ele>483.60</ele>
        <time>2024-06-27T06:50:08Z</time>
      </trkpt>
      <trkpt lat="45.991918" lon="13.660890">
        <ele>484.20</ele>
        <time>2024-06-27T06:50:13Z</time>
      </trkpt>
      <trkpt lat="45.991932" lon="13.660893">
        <ele>484.60</ele>
        <time>2024-06-27T06:50:14Z</time>
      </trkpt>
      <trkpt lat="45.991965" lon="13.660886">
        <ele>485.00</ele>
        <time>2024-06-27T06:50:17Z</time>
      </trkpt>
      <trkpt lat="45.992018" lon="13.660842">
        <ele>485.00</ele>
        <time>2024-06-27T06:50:21Z</time>
      </trkpt>
      <trkpt lat="45.992062" lon="13.660821">
        <ele>485.60</ele>
        <time>2024-06-27T06:50:24Z</time>
      </trkpt>
      <trkpt lat="45.992079" lon="13.660816">
        <ele>485.80</ele>
        <time>2024-06-27T06:50:25Z</time>
      </trkpt>
      <trkpt lat="45.992115" lon="13.660804">
        <ele>486.00</ele>
        <time>2024-06-27T06:50:28Z</time>
      </trkpt>
      <trkpt lat="45.992254" lon="13.660716">
        <ele>485.60</ele>
        <time>2024-06-27T06:50:41Z</time>
      </trkpt>
      <trkpt lat="45.992263" lon="13.660707">
        <ele>485.60</ele>
        <time>2024-06-27T06:50:42Z</time>
      </trkpt>
      <trkpt lat="45.992408" lon="13.660638">
        <ele>487.00</ele>
        <time>2024-06-27T06:50:55Z</time>
      </trkpt>
      <trkpt lat="45.992422" lon="13.660638">
        <ele>487.40</ele>
        <time>2024-06-27T06:50:56Z</time>
      </trkpt>
      <trkpt lat="45.992479" lon="13.660636">
        <ele>489.00</ele>
        <time>2024-06-27T06:51:02Z</time>
      </trkpt>
      <trkpt lat="45.992554" lon="13.660512">
        <ele>487.80</ele>
        <time>2024-06-27T06:51:11Z</time>
      </trkpt>
      <trkpt lat="45.992558" lon="13.660497">
        <ele>487.80</ele>
        <time>2024-06-27T06:51:12Z</time>
      </trkpt>
      <trkpt lat="45.992688" lon="13.660372">
        <ele>491.00</ele>
        <time>2024-06-27T06:51:24Z</time>
      </trkpt>
      <trkpt lat="45.992698" lon="13.660368">
        <ele>491.00</ele>
        <time>2024-06-27T06:51:25Z</time>
      </trkpt>
      <trkpt lat="45.992756" lon="13.660352">
        <ele>492.20</ele>
        <time>2024-06-27T06:51:29Z</time>
      </trkpt>
      <trkpt lat="45.992828" lon="13.660293">
        <ele>492.60</ele>
        <time>2024-06-27T06:51:34Z</time>
      </trkpt>
      <trkpt lat="45.992840" lon="13.660283">
        <ele>492.60</ele>
        <time>2024-06-27T06:51:35Z</time>
      </trkpt>
      <trkpt lat="45.992889" lon="13.660246">
        <ele>492.80</ele>
        <time>2024-06-27T06:51:38Z</time>
      </trkpt>
      <trkpt lat="45.992984" lon="13.660142">
        <ele>492.20</ele>
        <time>2024-06-27T06:51:47Z</time>
      </trkpt>
      <trkpt lat="45.992999" lon="13.660134">
        <ele>492.40</ele>
        <time>2024-06-27T06:51:48Z</time>
      </trkpt>
      <trkpt lat="45.993063" lon="13.660076">
        <ele>492.80</ele>
        <time>2024-06-27T06:51:54Z</time>
      </trkpt>
      <trkpt lat="45.993151" lon="13.660017">
        <ele>493.80</ele>
        <time>2024-06-27T06:52:02Z</time>
      </trkpt>
      <trkpt lat="45.993164" lon="13.660003">
        <ele>494.00</ele>
        <time>2024-06-27T06:52:03Z</time>
      </trkpt>
      <trkpt lat="45.993174" lon="13.659951">
        <ele>493.20</ele>
        <time>2024-06-27T06:52:06Z</time>
      </trkpt>
      <trkpt lat="45.993282" lon="13.659850">
        <ele>494.40</ele>
        <time>2024-06-27T06:52:18Z</time>
      </trkpt>
      <trkpt lat="45.993286" lon="13.659849">
        <ele>494.40</ele>
        <time>2024-06-27T06:52:19Z</time>
      </trkpt>
      <trkpt lat="45.993333" lon="13.659820">
        <ele>494.80</ele>
        <time>2024-06-27T06:52:23Z</time>
      </trkpt>
      <trkpt lat="45.993389" lon="13.659752">
        <ele>494.60</ele>
        <time>2024-06-27T06:52:30Z</time>
      </trkpt>
      <trkpt lat="45.993424" lon="13.659747">
        <ele>495.40</ele>
        <time>2024-06-27T06:52:32Z</time>
      </trkpt>
      <trkpt lat="45.993441" lon="13.659757">
        <ele>496.00</ele>
        <time>2024-06-27T06:52:33Z</time>
      </trkpt>
      <trkpt lat="45.993468" lon="13.659778">
        <ele>497.20</ele>
        <time>2024-06-27T06:52:36Z</time>
      </trkpt>
      <trkpt lat="45.993487" lon="13.659772">
        <ele>497.60</ele>
        <time>2024-06-27T06:52:39Z</time>
      </trkpt>
      <trkpt lat="45.993523" lon="13.659699">
        <ele>497.40</ele>
        <time>2024-06-27T06:52:48Z</time>
      </trkpt>
      <trkpt lat="45.993544" lon="13.659689">
        <ele>498.00</ele>
        <time>2024-06-27T06:52:51Z</time>
      </trkpt>
      <trkpt lat="45.993576" lon="13.659692">
        <ele>499.00</ele>
        <time>2024-06-27T06:52:54Z</time>
      </trkpt>
      <trkpt lat="45.993585" lon="13.659688">
        <ele>499.20</ele>
        <time>2024-06-27T06:52:55Z</time>
      </trkpt>
      <trkpt lat="45.993640" lon="13.659633">
        <ele>500.00</ele>
        <time>2024-06-27T06:53:03Z</time>
      </trkpt>
      <trkpt lat="45.993701" lon="13.659616">
        <ele>501.80</ele>
        <time>2024-06-27T06:53:09Z</time>
      </trkpt>
      <trkpt lat="45.993727" lon="13.659598">
        <ele>502.20</ele>
        <time>2024-06-27T06:53:12Z</time>
      </trkpt>
      <trkpt lat="45.993734" lon="13.659597">
        <ele>502.40</ele>
        <time>2024-06-27T06:53:13Z</time>
      </trkpt>
      <trkpt lat="45.993789" lon="13.659569">
        <ele>504.40</ele>
        <time>2024-06-27T06:53:21Z</time>
      </trkpt>
      <trkpt lat="45.993806" lon="13.659544">
        <ele>504.80</ele>
        <time>2024-06-27T06:53:23Z</time>
      </trkpt>
      <trkpt lat="45.993873" lon="13.659508">
        <ele>507.20</ele>
        <time>2024-06-27T06:53:32Z</time>
      </trkpt>
      <trkpt lat="45.993892" lon="13.659471">
        <ele>507.40</ele>
        <time>2024-06-27T06:53:35Z</time>
      </trkpt>
      <trkpt lat="45.993903" lon="13.659465">
        <ele>507.80</ele>
        <time>2024-06-27T06:53:36Z</time>
      </trkpt>
      <trkpt lat="45.993998" lon="13.659384">
        <ele>510.40</ele>
        <time>2024-06-27T06:53:47Z</time>
      </trkpt>
      <trkpt lat="45.994045" lon="13.659361">
        <ele>511.60</ele>
        <time>2024-06-27T06:53:51Z</time>
      </trkpt>
      <trkpt lat="45.994055" lon="13.659358">
        <ele>512.00</ele>
        <time>2024-06-27T06:53:52Z</time>
      </trkpt>
      <trkpt lat="45.994105" lon="13.659311">
        <ele>513.20</ele>
        <time>2024-06-27T06:53:59Z</time>
      </trkpt>
      <trkpt lat="45.994145" lon="13.659292">
        <ele>514.60</ele>
        <time>2024-06-27T06:54:02Z</time>
      </trkpt>
      <trkpt lat="45.994184" lon="13.659237">
        <ele>515.00</ele>
        <time>2024-06-27T06:54:07Z</time>
      </trkpt>
      <trkpt lat="45.994187" lon="13.659226">
        <ele>515.00</ele>
        <time>2024-06-27T06:54:08Z</time>
      </trkpt>
      <trkpt lat="45.994250" lon="13.659169">
        <ele>516.60</ele>
        <time>2024-06-27T06:54:18Z</time>
      </trkpt>
      <trkpt lat="45.994298" lon="13.659165">
        <ele>518.60</ele>
        <time>2024-06-27T06:54:24Z</time>
      </trkpt>
      <trkpt lat="45.994324" lon="13.659173">
        <ele>520.00</ele>
        <time>2024-06-27T06:54:28Z</time>
      </trkpt>
      <trkpt lat="45.994345" lon="13.659159">
        <ele>520.40</ele>
        <time>2024-06-27T06:54:31Z</time>
      </trkpt>
      <trkpt lat="45.994356" lon="13.659162">
        <ele>521.00</ele>
        <time>2024-06-27T06:54:32Z</time>
      </trkpt>
      <trkpt lat="45.994363" lon="13.659168">
        <ele>521.40</ele>
        <time>2024-06-27T06:54:33Z</time>
      </trkpt>
      <trkpt lat="45.994410" lon="13.659171">
        <ele>523.60</ele>
        <time>2024-06-27T06:54:39Z</time>
      </trkpt>
      <trkpt lat="45.994473" lon="13.659143">
        <ele>525.60</ele>
        <time>2024-06-27T06:54:47Z</time>
      </trkpt>
      <trkpt lat="45.994498" lon="13.659154">
        <ele>527.00</ele>
        <time>2024-06-27T06:54:50Z</time>
      </trkpt>
      <trkpt lat="45.994522" lon="13.659131">
        <ele>527.60</ele>
        <time>2024-06-27T06:54:54Z</time>
      </trkpt>
      <trkpt lat="45.994529" lon="13.659127">
        <ele>527.80</ele>
        <time>2024-06-27T06:54:55Z</time>
      </trkpt>
      <trkpt lat="45.994606" lon="13.659066">
        <ele>530.60</ele>
        <time>2024-06-27T06:55:06Z</time>
      </trkpt>
      <trkpt lat="45.994650" lon="13.659051">
        <ele>532.60</ele>
        <time>2024-06-27T06:55:13Z</time>
      </trkpt>
      <trkpt lat="45.994677" lon="13.659060">
        <ele>534.00</ele>
        <time>2024-06-27T06:55:16Z</time>
      </trkpt>
      <trkpt lat="45.994685" lon="13.659061">
        <ele>534.60</ele>
        <time>2024-06-27T06:55:17Z</time>
      </trkpt>
      <trkpt lat="45.994711" lon="13.659046">
        <ele>535.40</ele>
        <time>2024-06-27T06:55:32Z</time>
      </trkpt>
      <trkpt lat="45.994783" lon="13.659037">
        <ele>538.60</ele>
        <time>2024-06-27T06:55:41Z</time>
      </trkpt>
      <trkpt lat="45.994841" lon="13.658978">
        <ele>540.00</ele>
        <time>2024-06-27T06:55:50Z</time>
      </trkpt>
      <trkpt lat="45.994851" lon="13.658963">
        <ele>540.20</ele>
        <time>2024-06-27T06:55:51Z</time>
      </trkpt>
      <trkpt lat="45.994901" lon="13.658907">
        <ele>541.00</ele>
        <time>2024-06-27T06:55:57Z</time>
      </trkpt>
      <trkpt lat="45.994965" lon="13.658900">
        <ele>543.40</ele>
        <time>2024-06-27T06:56:04Z</time>
      </trkpt>
      <trkpt lat="45.995014" lon="13.658908">
        <ele>545.40</ele>
        <time>2024-06-27T06:56:11Z</time>
      </trkpt>
      <trkpt lat="45.995017" lon="13.658905">
        <ele>545.60</ele>
        <time>2024-06-27T06:56:12Z</time>
      </trkpt>
      <trkpt lat="45.995025" lon="13.658900">
        <ele>545.80</ele>
        <time>2024-06-27T06:56:13Z</time>
      </trkpt>
      <trkpt lat="45.995042" lon="13.658919">
        <ele>546.80</ele>
        <time>2024-06-27T06:56:17Z</time>
      </trkpt>
      <trkpt lat="45.995062" lon="13.658910">
        <ele>547.40</ele>
        <time>2024-06-27T06:56:19Z</time>
      </trkpt>
      <trkpt lat="45.995171" lon="13.658830">
        <ele>548.60</ele>
        <time>2024-06-27T06:56:33Z</time>
      </trkpt>
      <trkpt lat="45.995184" lon="13.658824">
        <ele>548.60</ele>
        <time>2024-06-27T06:56:34Z</time>
      </trkpt>
      <trkpt lat="45.995238" lon="13.658711">
        <ele>546.80</ele>
        <time>2024-06-27T06:56:44Z</time>
      </trkpt>
      <trkpt lat="45.995256" lon="13.658689">
        <ele>547.00</ele>
        <time>2024-06-27T06:56:46Z</time>
      </trkpt>
      <trkpt lat="45.995305" lon="13.658675">
        <ele>548.20</ele>
        <time>2024-06-27T06:56:50Z</time>
      </trkpt>
      <trkpt lat="45.995312" lon="13.658671">
        <ele>548.40</ele>
        <time>2024-06-27T06:56:51Z</time>
      </trkpt>
      <trkpt lat="45.995466" lon="13.658531">
        <ele>552.20</ele>
        <time>2024-06-27T06:57:06Z</time>
      </trkpt>
      <trkpt lat="45.995477" lon="13.658525">
        <ele>552.80</ele>
        <time>2024-06-27T06:57:07Z</time>
      </trkpt>
      <trkpt lat="45.995539" lon="13.658489">
        <ele>555.20</ele>
        <time>2024-06-27T06:57:13Z</time>
      </trkpt>
      <trkpt lat="45.995585" lon="13.658379">
        <ele>556.40</ele>
        <time>2024-06-27T06:57:22Z</time>
      </trkpt>
      <trkpt lat="45.995589" lon="13.658375">
        <ele>556.40</ele>
        <time>2024-06-27T06:57:23Z</time>
      </trkpt>
      <trkpt lat="45.995600" lon="13.658336">
        <ele>556.80</ele>
        <time>2024-06-27T06:57:26Z</time>
      </trkpt>
      <trkpt lat="45.995678" lon="13.658229">
        <ele>559.40</ele>
        <time>2024-06-27T06:57:34Z</time>
      </trkpt>
      <trkpt lat="45.995692" lon="13.658216">
        <ele>559.80</ele>
        <time>2024-06-27T06:57:35Z</time>
      </trkpt>
      <trkpt lat="45.995777" lon="13.658123">
        <ele>561.80</ele>
        <time>2024-06-27T06:57:47Z</time>
      </trkpt>
      <trkpt lat="45.995833" lon="13.658039">
        <ele>562.20</ele>
        <time>2024-06-27T06:57:54Z</time>
      </trkpt>
      <trkpt lat="45.995836" lon="13.658029">
        <ele>562.00</ele>
        <time>2024-06-27T06:57:55Z</time>
      </trkpt>
      <trkpt lat="45.995887" lon="13.657876">
        <ele>561.80</ele>
        <time>2024-06-27T06:58:06Z</time>
      </trkpt>
      <trkpt lat="45.995895" lon="13.657861">
        <ele>562.00</ele>
        <time>2024-06-27T06:58:07Z</time>
      </trkpt>
      <trkpt lat="45.995941" lon="13.657834">
        <ele>563.20</ele>
        <time>2024-06-27T06:58:10Z</time>
      </trkpt>
      <trkpt lat="45.995946" lon="13.657821">
        <ele>563.20</ele>
        <time>2024-06-27T06:58:11Z</time>
      </trkpt>
      <trkpt lat="45.996020" lon="13.657727">
        <ele>564.60</ele>
        <time>2024-06-27T06:58:20Z</time>
      </trkpt>
      <trkpt lat="45.996044" lon="13.657711">
        <ele>565.20</ele>
        <time>2024-06-27T06:58:22Z</time>
      </trkpt>
      <trkpt lat="45.996063" lon="13.657672">
        <ele>565.40</ele>
        <time>2024-06-27T06:58:26Z</time>
      </trkpt>
      <trkpt lat="45.996068" lon="13.657665">
        <ele>565.60</ele>
        <time>2024-06-27T06:58:27Z</time>
      </trkpt>
      <trkpt lat="45.996197" lon="13.657492">
        <ele>568.80</ele>
        <time>2024-06-27T06:58:42Z</time>
      </trkpt>
      <trkpt lat="45.996207" lon="13.657478">
        <ele>569.00</ele>
        <time>2024-06-27T06:58:43Z</time>
      </trkpt>
      <trkpt lat="45.996256" lon="13.657401">
        <ele>570.40</ele>
        <time>2024-06-27T06:58:49Z</time>
      </trkpt>
      <trkpt lat="45.996278" lon="13.657383">
        <ele>571.20</ele>
        <time>2024-06-27T06:58:51Z</time>
      </trkpt>
      <trkpt lat="45.996330" lon="13.657292">
        <ele>572.20</ele>
        <time>2024-06-27T06:58:58Z</time>
      </trkpt>
      <trkpt lat="45.996337" lon="13.657273">
        <ele>572.20</ele>
        <time>2024-06-27T06:58:59Z</time>
      </trkpt>
      <trkpt lat="45.996382" lon="13.657177">
        <ele>573.00</ele>
        <time>2024-06-27T06:59:07Z</time>
      </trkpt>
      <trkpt lat="45.996403" lon="13.657156">
        <ele>573.60</ele>
        <time>2024-06-27T06:59:09Z</time>
      </trkpt>
      <trkpt lat="45.996449" lon="13.657067">
        <ele>573.60</ele>
        <time>2024-06-27T06:59:15Z</time>
      </trkpt>
      <trkpt lat="45.996453" lon="13.657050">
        <ele>573.40</ele>
        <time>2024-06-27T06:59:16Z</time>
      </trkpt>
      <trkpt lat="45.996493" lon="13.656975">
        <ele>573.40</ele>
        <time>2024-06-27T06:59:23Z</time>
      </trkpt>
      <trkpt lat="45.996567" lon="13.656876">
        <ele>574.80</ele>
        <time>2024-06-27T06:59:31Z</time>
      </trkpt>
      <trkpt lat="45.996578" lon="13.656870">
        <ele>575.40</ele>
        <time>2024-06-27T06:59:32Z</time>
      </trkpt>
      <trkpt lat="45.996596" lon="13.656839">
        <ele>575.80</ele>
        <time>2024-06-27T06:59:35Z</time>
      </trkpt>
      <trkpt lat="45.996655" lon="13.656783">
        <ele>578.20</ele>
        <time>2024-06-27T06:59:42Z</time>
      </trkpt>
      <trkpt lat="45.996692" lon="13.656718">
        <ele>579.00</ele>
        <time>2024-06-27T06:59:48Z</time>
      </trkpt>
      <trkpt lat="45.996706" lon="13.656711">
        <ele>579.60</ele>
        <time>2024-06-27T06:59:49Z</time>
      </trkpt>
      <trkpt lat="45.996759" lon="13.656743">
        <ele>583.80</ele>
        <time>2024-06-27T06:59:54Z</time>
      </trkpt>
      <trkpt lat="45.996817" lon="13.656819">
        <ele>589.80</ele>
        <time>2024-06-27T07:00:03Z</time>
      </trkpt>
      <trkpt lat="45.996847" lon="13.656814">
        <ele>592.00</ele>
        <time>2024-06-27T07:00:14Z</time>
      </trkpt>
      <trkpt lat="45.996854" lon="13.656815">
        <ele>592.60</ele>
        <time>2024-06-27T07:00:15Z</time>
      </trkpt>
      <trkpt lat="45.996963" lon="13.656764">
        <ele>600.60</ele>
        <time>2024-06-27T07:00:48Z</time>
      </trkpt>
      <trkpt lat="45.997008" lon="13.656711">
        <ele>603.60</ele>
        <time>2024-06-27T07:00:53Z</time>
      </trkpt>
      <trkpt lat="45.997013" lon="13.656701">
        <ele>603.80</ele>
        <time>2024-06-27T07:00:54Z</time>
      </trkpt>
      <trkpt lat="45.997101" lon="13.656551">
        <ele>607.40</ele>
        <time>2024-06-27T07:01:04Z</time>
      </trkpt>
      <trkpt lat="45.997110" lon="13.656528">
        <ele>607.40</ele>
        <time>2024-06-27T07:01:05Z</time>
      </trkpt>
      <trkpt lat="45.997130" lon="13.656473">
        <ele>607.20</ele>
        <time>2024-06-27T07:01:08Z</time>
      </trkpt>
      <trkpt lat="45.997225" lon="13.656340">
        <ele>608.00</ele>
        <time>2024-06-27T07:01:17Z</time>
      </trkpt>
      <trkpt lat="45.997236" lon="13.656323">
        <ele>608.00</ele>
        <time>2024-06-27T07:01:18Z</time>
      </trkpt>
      <trkpt lat="45.997288" lon="13.656258">
        <ele>609.00</ele>
        <time>2024-06-27T07:01:24Z</time>
      </trkpt>
      <trkpt lat="45.997309" lon="13.656208">
        <ele>608.80</ele>
        <time>2024-06-27T07:01:29Z</time>
      </trkpt>
      <trkpt lat="45.997351" lon="13.656184">
        <ele>610.20</ele>
        <time>2024-06-27T07:01:32Z</time>
      </trkpt>
      <trkpt lat="45.997363" lon="13.656180">
        <ele>610.80</ele>
        <time>2024-06-27T07:01:33Z</time>
      </trkpt>
      <trkpt lat="45.997442" lon="13.656074">
        <ele>613.00</ele>
        <time>2024-06-27T07:01:45Z</time>
      </trkpt>
      <trkpt lat="45.997495" lon="13.656045">
        <ele>615.20</ele>
        <time>2024-06-27T07:01:50Z</time>
      </trkpt>
      <trkpt lat="45.997505" lon="13.656038">
        <ele>615.60</ele>
        <time>2024-06-27T07:01:51Z</time>
      </trkpt>
      <trkpt lat="45.997547" lon="13.655970">
        <ele>615.40</ele>
        <time>2024-06-27T07:01:57Z</time>
      </trkpt>
      <trkpt lat="45.997620" lon="13.655903">
        <ele>616.00</ele>
        <time>2024-06-27T07:02:06Z</time>
      </trkpt>
      <trkpt lat="45.997622" lon="13.655893">
        <ele>615.80</ele>
        <time>2024-06-27T07:02:07Z</time>
      </trkpt>
      <trkpt lat="45.997687" lon="13.655829">
        <ele>619.00</ele>
        <time>2024-06-27T07:02:17Z</time>
      </trkpt>
      <trkpt lat="45.997731" lon="13.655810">
        <ele>622.00</ele>
        <time>2024-06-27T07:02:23Z</time>
      </trkpt>
      <trkpt lat="45.997775" lon="13.655758">
        <ele>624.60</ele>
        <time>2024-06-27T07:02:28Z</time>
      </trkpt>
      <trkpt lat="45.997787" lon="13.655745">
        <ele>625.20</ele>
        <time>2024-06-27T07:02:29Z</time>
      </trkpt>
      <trkpt lat="45.997821" lon="13.655742">
        <ele>626.80</ele>
        <time>2024-06-27T07:02:34Z</time>
      </trkpt>
      <trkpt lat="45.997825" lon="13.655778">
        <ele>628.20</ele>
        <time>2024-06-27T07:02:37Z</time>
      </trkpt>
      <trkpt lat="45.997804" lon="13.655831">
        <ele>627.40</ele>
        <time>2024-06-27T07:02:42Z</time>
      </trkpt>
      <trkpt lat="45.997800" lon="13.655940">
        <ele>629.60</ele>
        <time>2024-06-27T07:02:50Z</time>
      </trkpt>
      <trkpt lat="45.997798" lon="13.655954">
        <ele>630.00</ele>
        <time>2024-06-27T07:02:51Z</time>
      </trkpt>
      <trkpt lat="45.997771" lon="13.656197">
        <ele>634.60</ele>
        <time>2024-06-27T07:03:07Z</time>
      </trkpt>
      <trkpt lat="45.997770" lon="13.656210">
        <ele>634.80</ele>
        <time>2024-06-27T07:03:08Z</time>
      </trkpt>
      <trkpt lat="45.997743" lon="13.656269">
        <ele>634.20</ele>
        <time>2024-06-27T07:03:13Z</time>
      </trkpt>
      <trkpt lat="45.997725" lon="13.656433">
        <ele>638.20</ele>
        <time>2024-06-27T07:03:22Z</time>
      </trkpt>
      <trkpt lat="45.997722" lon="13.656445">
        <ele>638.20</ele>
        <time>2024-06-27T07:03:23Z</time>
      </trkpt>
      <trkpt lat="45.997711" lon="13.656492">
        <ele>638.40</ele>
        <time>2024-06-27T07:03:26Z</time>
      </trkpt>
      <trkpt lat="45.997728" lon="13.656492">
        <ele>639.60</ele>
        <time>2024-06-27T07:03:37Z</time>
      </trkpt>
      <trkpt lat="45.997832" lon="13.656416">
        <ele>645.40</ele>
        <time>2024-06-27T07:03:47Z</time>
      </trkpt>
      <trkpt lat="45.997844" lon="13.656410">
        <ele>646.00</ele>
        <time>2024-06-27T07:03:48Z</time>
      </trkpt>
      <trkpt lat="45.997853" lon="13.656403">
        <ele>646.60</ele>
        <time>2024-06-27T07:03:49Z</time>
      </trkpt>
      <trkpt lat="45.997879" lon="13.656406">
        <ele>648.40</ele>
        <time>2024-06-27T07:03:55Z</time>
      </trkpt>
      <trkpt lat="45.997901" lon="13.656382">
        <ele>649.60</ele>
        <time>2024-06-27T07:03:58Z</time>
      </trkpt>
      <trkpt lat="45.997919" lon="13.656327">
        <ele>649.40</ele>
        <time>2024-06-27T07:04:01Z</time>
      </trkpt>
      <trkpt lat="45.997953" lon="13.656279">
        <ele>650.00</ele>
        <time>2024-06-27T07:04:04Z</time>
      </trkpt>
      <trkpt lat="45.997958" lon="13.656265">
        <ele>649.80</ele>
        <time>2024-06-27T07:04:05Z</time>
      </trkpt>
      <trkpt lat="45.998057" lon="13.656071">
        <ele>651.00</ele>
        <time>2024-06-27T07:04:20Z</time>
      </trkpt>
      <trkpt lat="45.998063" lon="13.656062">
        <ele>651.00</ele>
        <time>2024-06-27T07:04:21Z</time>
      </trkpt>
      <trkpt lat="45.998092" lon="13.656044">
        <ele>652.20</ele>
        <time>2024-06-27T07:04:25Z</time>
      </trkpt>
      <trkpt lat="45.998106" lon="13.656067">
        <ele>653.80</ele>
        <time>2024-06-27T07:04:29Z</time>
      </trkpt>
      <trkpt lat="45.998094" lon="13.656241">
        <ele>657.20</ele>
        <time>2024-06-27T07:04:43Z</time>
      </trkpt>
      <trkpt lat="45.998095" lon="13.656263">
        <ele>657.60</ele>
        <time>2024-06-27T07:04:44Z</time>
      </trkpt>
      <trkpt lat="45.998080" lon="13.656395">
        <ele>659.40</ele>
        <time>2024-06-27T07:04:52Z</time>
      </trkpt>
      <trkpt lat="45.998088" lon="13.656506">
        <ele>661.00</ele>
        <time>2024-06-27T07:05:01Z</time>
      </trkpt>
      <trkpt lat="45.998085" lon="13.656522">
        <ele>660.80</ele>
        <time>2024-06-27T07:05:02Z</time>
      </trkpt>
      <trkpt lat="45.998062" lon="13.656628">
        <ele>660.80</ele>
        <time>2024-06-27T07:05:17Z</time>
      </trkpt>
      <trkpt lat="45.998105" lon="13.656663">
        <ele>663.00</ele>
        <time>2024-06-27T07:06:00Z</time>
      </trkpt>
      <trkpt lat="45.998131" lon="13.656613">
        <ele>663.40</ele>
        <time>2024-06-27T07:06:03Z</time>
      </trkpt>
      <trkpt lat="45.998141" lon="13.656598">
        <ele>664.00</ele>
        <time>2024-06-27T07:06:04Z</time>
      </trkpt>
      <trkpt lat="45.998233" lon="13.656400">
        <ele>667.20</ele>
        <time>2024-06-27T07:06:16Z</time>
      </trkpt>
      <trkpt lat="45.998238" lon="13.656383">
        <ele>667.20</ele>
        <time>2024-06-27T07:06:17Z</time>
      </trkpt>
      <trkpt lat="45.998260" lon="13.656341">
        <ele>667.60</ele>
        <time>2024-06-27T07:06:20Z</time>
      </trkpt>
      <trkpt lat="45.998307" lon="13.656296">
        <ele>669.00</ele>
        <time>2024-06-27T07:06:25Z</time>
      </trkpt>
      <trkpt lat="45.998360" lon="13.656215">
        <ele>670.40</ele>
        <time>2024-06-27T07:06:29Z</time>
      </trkpt>
      <trkpt lat="45.998374" lon="13.656193">
        <ele>670.80</ele>
        <time>2024-06-27T07:06:30Z</time>
      </trkpt>
      <trkpt lat="45.998462" lon="13.656114">
        <ele>673.80</ele>
        <time>2024-06-27T07:06:36Z</time>
      </trkpt>
      <trkpt lat="45.998487" lon="13.656111">
        <ele>674.60</ele>
        <time>2024-06-27T07:06:38Z</time>
      </trkpt>
      <trkpt lat="45.998516" lon="13.656121">
        <ele>675.40</ele>
        <time>2024-06-27T07:06:40Z</time>
      </trkpt>
      <trkpt lat="45.998531" lon="13.656128">
        <ele>675.80</ele>
        <time>2024-06-27T07:06:41Z</time>
      </trkpt>
      <trkpt lat="45.998589" lon="13.656133">
        <ele>677.20</ele>
        <time>2024-06-27T07:06:45Z</time>
      </trkpt>
      <trkpt lat="45.998685" lon="13.656100">
        <ele>678.60</ele>
        <time>2024-06-27T07:06:52Z</time>
      </trkpt>
      <trkpt lat="45.998701" lon="13.656084">
        <ele>678.80</ele>
        <time>2024-06-27T07:06:53Z</time>
      </trkpt>
      <trkpt lat="45.998754" lon="13.656049">
        <ele>679.80</ele>
        <time>2024-06-27T07:07:01Z</time>
      </trkpt>
      <trkpt lat="45.998773" lon="13.656057">
        <ele>679.60</ele>
        <time>2024-06-27T07:07:06Z</time>
      </trkpt>
      <trkpt lat="45.998830" lon="13.655962">
        <ele>678.00</ele>
        <time>2024-06-27T07:07:12Z</time>
      </trkpt>
      <trkpt lat="45.998837" lon="13.655944">
        <ele>678.20</ele>
        <time>2024-06-27T07:07:13Z</time>
      </trkpt>
      <trkpt lat="45.998877" lon="13.655852">
        <ele>678.60</ele>
        <time>2024-06-27T07:07:18Z</time>
      </trkpt>
      <trkpt lat="45.998941" lon="13.655794">
        <ele>678.20</ele>
        <time>2024-06-27T07:07:23Z</time>
      </trkpt>
      <trkpt lat="45.998950" lon="13.655782">
        <ele>678.40</ele>
        <time>2024-06-27T07:07:24Z</time>
      </trkpt>
      <trkpt lat="45.999036" lon="13.655681">
        <ele>680.00</ele>
        <time>2024-06-27T07:07:31Z</time>
      </trkpt>
      <trkpt lat="45.999089" lon="13.655672">
        <ele>679.60</ele>
        <time>2024-06-27T07:07:33Z</time>
      </trkpt>
      <trkpt lat="45.999107" lon="13.655673">
        <ele>679.60</ele>
        <time>2024-06-27T07:07:34Z</time>
      </trkpt>
      <trkpt lat="45.999184" lon="13.655656">
        <ele>680.40</ele>
        <time>2024-06-27T07:07:40Z</time>
      </trkpt>
      <trkpt lat="45.999263" lon="13.655576">
        <ele>681.40</ele>
        <time>2024-06-27T07:07:47Z</time>
      </trkpt>
      <trkpt lat="45.999276" lon="13.655563">
        <ele>681.40</ele>
        <time>2024-06-27T07:07:48Z</time>
      </trkpt>
      <trkpt lat="45.999327" lon="13.655470">
        <ele>682.40</ele>
        <time>2024-06-27T07:07:54Z</time>
      </trkpt>
      <trkpt lat="45.999381" lon="13.655402">
        <ele>681.80</ele>
        <time>2024-06-27T07:08:00Z</time>
      </trkpt>
      <trkpt lat="45.999389" lon="13.655388">
        <ele>682.00</ele>
        <time>2024-06-27T07:08:01Z</time>
      </trkpt>
      <trkpt lat="45.999449" lon="13.655286">
        <ele>682.40</ele>
        <time>2024-06-27T07:08:08Z</time>
      </trkpt>
      <trkpt lat="45.999509" lon="13.655207">
        <ele>681.40</ele>
        <time>2024-06-27T07:08:15Z</time>
      </trkpt>
      <trkpt lat="45.999520" lon="13.655191">
        <ele>681.60</ele>
        <time>2024-06-27T07:08:16Z</time>
      </trkpt>
      <trkpt lat="45.999615" lon="13.655048">
        <ele>682.40</ele>
        <time>2024-06-27T07:08:25Z</time>
      </trkpt>
      <trkpt lat="45.999626" lon="13.655032">
        <ele>682.40</ele>
        <time>2024-06-27T07:08:26Z</time>
      </trkpt>
      <trkpt lat="45.999703" lon="13.654851">
        <ele>680.20</ele>
        <time>2024-06-27T07:08:38Z</time>
      </trkpt>
      <trkpt lat="45.999743" lon="13.654821">
        <ele>679.80</ele>
        <time>2024-06-27T07:08:41Z</time>
      </trkpt>
      <trkpt lat="45.999754" lon="13.654811">
        <ele>679.80</ele>
        <time>2024-06-27T07:08:42Z</time>
      </trkpt>
      <trkpt lat="45.999793" lon="13.654760">
        <ele>679.40</ele>
        <time>2024-06-27T07:08:46Z</time>
      </trkpt>
      <trkpt lat="45.999724" lon="13.654716">
        <ele>679.00</ele>
        <time>2024-06-27T07:08:55Z</time>
      </trkpt>
      <trkpt lat="45.999689" lon="13.654708">
        <ele>679.00</ele>
        <time>2024-06-27T07:08:57Z</time>
      </trkpt>
      <trkpt lat="45.999671" lon="13.654710">
        <ele>679.20</ele>
        <time>2024-06-27T07:08:58Z</time>
      </trkpt>
      <trkpt lat="45.999610" lon="13.654710">
        <ele>679.60</ele>
        <time>2024-06-27T07:09:02Z</time>
      </trkpt>
      <trkpt lat="45.999571" lon="13.654690">
        <ele>679.00</ele>
        <time>2024-06-27T07:09:05Z</time>
      </trkpt>
      <trkpt lat="45.999547" lon="13.654662">
        <ele>677.60</ele>
        <time>2024-06-27T07:09:07Z</time>
      </trkpt>
      <trkpt lat="45.999534" lon="13.654649">
        <ele>676.80</ele>
        <time>2024-06-27T07:09:08Z</time>
      </trkpt>
      <trkpt lat="45.999477" lon="13.654609">
        <ele>674.20</ele>
        <time>2024-06-27T07:09:12Z</time>
      </trkpt>
      <trkpt lat="45.999460" lon="13.654582">
        <ele>673.00</ele>
        <time>2024-06-27T07:09:14Z</time>
      </trkpt>
      <trkpt lat="45.999441" lon="13.654530">
        <ele>671.40</ele>
        <time>2024-06-27T07:09:17Z</time>
      </trkpt>
      <trkpt lat="45.999440" lon="13.654488">
        <ele>670.40</ele>
        <time>2024-06-27T07:09:19Z</time>
      </trkpt>
      <trkpt lat="45.999439" lon="13.654472">
        <ele>669.80</ele>
        <time>2024-06-27T07:09:20Z</time>
      </trkpt>
      <trkpt lat="45.999415" lon="13.654457">
        <ele>668.60</ele>
        <time>2024-06-27T07:09:36Z</time>
      </trkpt>
      <trkpt lat="45.999395" lon="13.654474">
        <ele>668.40</ele>
        <time>2024-06-27T07:09:50Z</time>
      </trkpt>
      <trkpt lat="45.999400" lon="13.654501">
        <ele>669.40</ele>
        <time>2024-06-27T07:09:57Z</time>
      </trkpt>
      <trkpt lat="45.999478" lon="13.654502">
        <ele>672.00</ele>
        <time>2024-06-27T07:10:02Z</time>
      </trkpt>
      <trkpt lat="45.999488" lon="13.654504">
        <ele>672.20</ele>
        <time>2024-06-27T07:10:03Z</time>
      </trkpt>
      <trkpt lat="45.999550" lon="13.654630">
        <ele>677.00</ele>
        <time>2024-06-27T07:10:26Z</time>
      </trkpt>
      <trkpt lat="45.999602" lon="13.654662">
        <ele>678.60</ele>
        <time>2024-06-27T07:10:31Z</time>
      </trkpt>
      <trkpt lat="45.999619" lon="13.654670">
        <ele>678.60</ele>
        <time>2024-06-27T07:10:32Z</time>
      </trkpt>
      <trkpt lat="45.999685" lon="13.654694">
        <ele>678.80</ele>
        <time>2024-06-27T07:10:36Z</time>
      </trkpt>
      <trkpt lat="45.999729" lon="13.654722">
        <ele>679.00</ele>
        <time>2024-06-27T07:10:39Z</time>
      </trkpt>
      <trkpt lat="45.999764" lon="13.654726">
        <ele>678.80</ele>
        <time>2024-06-27T07:10:42Z</time>
      </trkpt>
      <trkpt lat="45.999777" lon="13.654723">
        <ele>678.60</ele>
        <time>2024-06-27T07:10:43Z</time>
      </trkpt>
      <trkpt lat="45.999826" lon="13.654674">
        <ele>677.60</ele>
        <time>2024-06-27T07:10:47Z</time>
      </trkpt>
      <trkpt lat="45.999858" lon="13.654590">
        <ele>676.40</ele>
        <time>2024-06-27T07:10:52Z</time>
      </trkpt>
      <trkpt lat="45.999894" lon="13.654536">
        <ele>664.00</ele>
        <time>2024-06-27T07:10:55Z</time>
      </trkpt>
      <trkpt lat="45.999906" lon="13.654526">
        <ele>664.00</ele>
        <time>2024-06-27T07:10:56Z</time>
      </trkpt>
      <trkpt lat="45.999967" lon="13.654458">
        <ele>663.80</ele>
        <time>2024-06-27T07:11:01Z</time>
      </trkpt>
      <trkpt lat="46.000019" lon="13.654368">
        <ele>664.20</ele>
        <time>2024-06-27T07:11:09Z</time>
      </trkpt>
      <trkpt lat="46.000020" lon="13.654359">
        <ele>664.00</ele>
        <time>2024-06-27T07:11:10Z</time>
      </trkpt>
      <trkpt lat="46.000004" lon="13.654288">
        <ele>663.20</ele>
        <time>2024-06-27T07:11:17Z</time>
      </trkpt>
      <trkpt lat="45.999986" lon="13.654273">
        <ele>663.00</ele>
        <time>2024-06-27T07:11:20Z</time>
      </trkpt>
    </trkseg>
  </trk>
</gpx>
